<?xml version="1.0" encoding="UTF-8" standalone="no" ?>
<gpx xmlns="http://www.topografix.com/GPX/1/1" xmlns:xsi="http://www.w3.org/2001/XMLSchema-instance" xsi:schemaLocation="http://www.topografix.com/GPX/1/1 http://www.topografix.com/GPX/1/1/gpx.xsd" version="1.1" creator="VisuGPX - https://www.visugpx.com">
  <metadata>
    <name>Veigy CURRENT TRACK- 13 OCT 2021 12-44</name>
    <desc><![CDATA[balade en boucle au départ de Veigy]]></desc>
  </metadata>
  <trk>
    <name><![CDATA[CURRENT TRACK- 13 OCT 2021 12-44]]></name>
    <extensions>
      <line xmlns="http://www.topografix.com/GPX/gpx_style/0/2">
        <color>00FFFF</color>
        <width>4</width>
      </line>
    </extensions>
    <trkseg>
      <trkpt lat="46.26798" lon="6.25781">
        <ele>366.21</ele>
        <time>2021-10-13T12:44:48Z</time>
      </trkpt>
      <trkpt lat="46.2683" lon="6.25787">
        <ele>472.4</ele>
        <time>2021-10-13T12:53:12Z</time>
      </trkpt>
      <trkpt lat="46.26836" lon="6.25756">
        <ele>472.4</ele>
        <time>2021-10-13T12:53:20Z</time>
      </trkpt>
      <trkpt lat="46.26847" lon="6.25759">
        <ele>472.4</ele>
        <time>2021-10-13T12:53:43Z</time>
      </trkpt>
      <trkpt lat="46.26838" lon="6.25786">
        <ele>472.4</ele>
        <time>2021-10-13T12:53:50Z</time>
      </trkpt>
      <trkpt lat="46.26824" lon="6.25809">
        <ele>472.4</ele>
        <time>2021-10-13T12:53:59Z</time>
      </trkpt>
      <trkpt lat="46.26806" lon="6.25803">
        <ele>472.4</ele>
        <time>2021-10-13T12:54:05Z</time>
      </trkpt>
      <trkpt lat="46.26785" lon="6.25789">
        <ele>472.4</ele>
        <time>2021-10-13T12:54:10Z</time>
      </trkpt>
      <trkpt lat="46.26766" lon="6.25774">
        <ele>472.4</ele>
        <time>2021-10-13T12:54:15Z</time>
      </trkpt>
      <trkpt lat="46.26745" lon="6.25763">
        <ele>472.4</ele>
        <time>2021-10-13T12:54:21Z</time>
      </trkpt>
      <trkpt lat="46.26726" lon="6.25754">
        <ele>472.4</ele>
        <time>2021-10-13T12:54:28Z</time>
      </trkpt>
      <trkpt lat="46.26708" lon="6.25742">
        <ele>472.4</ele>
        <time>2021-10-13T12:54:35Z</time>
      </trkpt>
      <trkpt lat="46.26698" lon="6.25722">
        <ele>472.4</ele>
        <time>2021-10-13T12:54:44Z</time>
      </trkpt>
      <trkpt lat="46.26678" lon="6.25717">
        <ele>472.4</ele>
        <time>2021-10-13T12:54:54Z</time>
      </trkpt>
      <trkpt lat="46.26657" lon="6.25714">
        <ele>472.4</ele>
        <time>2021-10-13T12:55:01Z</time>
      </trkpt>
      <trkpt lat="46.26639" lon="6.25703">
        <ele>472.4</ele>
        <time>2021-10-13T12:55:08Z</time>
      </trkpt>
      <trkpt lat="46.2662" lon="6.25694">
        <ele>472.4</ele>
        <time>2021-10-13T12:55:15Z</time>
      </trkpt>
      <trkpt lat="46.266" lon="6.25706">
        <ele>472.4</ele>
        <time>2021-10-13T12:55:22Z</time>
      </trkpt>
      <trkpt lat="46.26584" lon="6.25712">
        <ele>472.4</ele>
        <time>2021-10-13T12:55:43Z</time>
      </trkpt>
      <trkpt lat="46.26564" lon="6.25702">
        <ele>472.4</ele>
        <time>2021-10-13T12:55:51Z</time>
      </trkpt>
      <trkpt lat="46.26546" lon="6.25693">
        <ele>472.4</ele>
        <time>2021-10-13T12:55:58Z</time>
      </trkpt>
      <trkpt lat="46.26526" lon="6.25683">
        <ele>476.55</ele>
        <time>2021-10-13T12:56:05Z</time>
      </trkpt>
      <trkpt lat="46.26509" lon="6.25683">
        <ele>477.19</ele>
        <time>2021-10-13T12:56:13Z</time>
      </trkpt>
      <trkpt lat="46.26504" lon="6.25714">
        <ele>478.06</ele>
        <time>2021-10-13T12:56:19Z</time>
      </trkpt>
      <trkpt lat="46.26499" lon="6.25742">
        <ele>478.57</ele>
        <time>2021-10-13T12:56:25Z</time>
      </trkpt>
      <trkpt lat="46.26495" lon="6.25772">
        <ele>478.5</ele>
        <time>2021-10-13T12:56:32Z</time>
      </trkpt>
      <trkpt lat="46.26495" lon="6.25799">
        <ele>479.11</ele>
        <time>2021-10-13T12:56:37Z</time>
      </trkpt>
      <trkpt lat="46.26509" lon="6.25823">
        <ele>479.48</ele>
        <time>2021-10-13T12:56:42Z</time>
      </trkpt>
      <trkpt lat="46.26526" lon="6.2584">
        <ele>479.61</ele>
        <time>2021-10-13T12:56:47Z</time>
      </trkpt>
      <trkpt lat="46.26543" lon="6.25855">
        <ele>479.78</ele>
        <time>2021-10-13T12:56:52Z</time>
      </trkpt>
      <trkpt lat="46.26558" lon="6.2587">
        <ele>479.39</ele>
        <time>2021-10-13T12:56:56Z</time>
      </trkpt>
      <trkpt lat="46.2657" lon="6.25891">
        <ele>478.84</ele>
        <time>2021-10-13T12:57:00Z</time>
      </trkpt>
      <trkpt lat="46.26578" lon="6.25919">
        <ele>478.51</ele>
        <time>2021-10-13T12:57:05Z</time>
      </trkpt>
      <trkpt lat="46.26581" lon="6.25952">
        <ele>477.82</ele>
        <time>2021-10-13T12:57:10Z</time>
      </trkpt>
      <trkpt lat="46.26585" lon="6.25983">
        <ele>476.98</ele>
        <time>2021-10-13T12:57:15Z</time>
      </trkpt>
      <trkpt lat="46.26589" lon="6.2601">
        <ele>476.71</ele>
        <time>2021-10-13T12:57:20Z</time>
      </trkpt>
      <trkpt lat="46.26589" lon="6.26035">
        <ele>476.36</ele>
        <time>2021-10-13T12:57:25Z</time>
      </trkpt>
      <trkpt lat="46.26583" lon="6.2606">
        <ele>476.28</ele>
        <time>2021-10-13T12:57:30Z</time>
      </trkpt>
      <trkpt lat="46.26574" lon="6.26088">
        <ele>476.37</ele>
        <time>2021-10-13T12:57:36Z</time>
      </trkpt>
      <trkpt lat="46.26566" lon="6.26112">
        <ele>476.69</ele>
        <time>2021-10-13T12:57:41Z</time>
      </trkpt>
      <trkpt lat="46.26557" lon="6.26138">
        <ele>477.11</ele>
        <time>2021-10-13T12:57:46Z</time>
      </trkpt>
      <trkpt lat="46.26549" lon="6.26167">
        <ele>477.47</ele>
        <time>2021-10-13T12:57:51Z</time>
      </trkpt>
      <trkpt lat="46.26546" lon="6.26198">
        <ele>477.86</ele>
        <time>2021-10-13T12:57:56Z</time>
      </trkpt>
      <trkpt lat="46.26547" lon="6.26226">
        <ele>478.08</ele>
        <time>2021-10-13T12:58:00Z</time>
      </trkpt>
      <trkpt lat="46.2655" lon="6.26257">
        <ele>478.12</ele>
        <time>2021-10-13T12:58:04Z</time>
      </trkpt>
      <trkpt lat="46.26555" lon="6.26285">
        <ele>478.12</ele>
        <time>2021-10-13T12:58:08Z</time>
      </trkpt>
      <trkpt lat="46.26561" lon="6.26313">
        <ele>478.12</ele>
        <time>2021-10-13T12:58:13Z</time>
      </trkpt>
      <trkpt lat="46.26566" lon="6.26343">
        <ele>478.12</ele>
        <time>2021-10-13T12:58:19Z</time>
      </trkpt>
      <trkpt lat="46.26569" lon="6.26372">
        <ele>478.12</ele>
        <time>2021-10-13T12:58:24Z</time>
      </trkpt>
      <trkpt lat="46.26573" lon="6.26404">
        <ele>478.12</ele>
        <time>2021-10-13T12:58:29Z</time>
      </trkpt>
      <trkpt lat="46.26577" lon="6.26431">
        <ele>478.12</ele>
        <time>2021-10-13T12:58:33Z</time>
      </trkpt>
      <trkpt lat="46.26578" lon="6.2646">
        <ele>478.12</ele>
        <time>2021-10-13T12:58:37Z</time>
      </trkpt>
      <trkpt lat="46.2658" lon="6.2649">
        <ele>478.12</ele>
        <time>2021-10-13T12:58:41Z</time>
      </trkpt>
      <trkpt lat="46.26582" lon="6.26517">
        <ele>478.12</ele>
        <time>2021-10-13T12:58:46Z</time>
      </trkpt>
      <trkpt lat="46.26583" lon="6.26543">
        <ele>478.12</ele>
        <time>2021-10-13T12:58:51Z</time>
      </trkpt>
      <trkpt lat="46.26585" lon="6.26572">
        <ele>478.12</ele>
        <time>2021-10-13T12:58:56Z</time>
      </trkpt>
      <trkpt lat="46.26586" lon="6.26603">
        <ele>478.12</ele>
        <time>2021-10-13T12:59:01Z</time>
      </trkpt>
      <trkpt lat="46.26588" lon="6.26633">
        <ele>478.12</ele>
        <time>2021-10-13T12:59:06Z</time>
      </trkpt>
      <trkpt lat="46.26591" lon="6.26663">
        <ele>478.12</ele>
        <time>2021-10-13T12:59:11Z</time>
      </trkpt>
      <trkpt lat="46.26595" lon="6.26692">
        <ele>478.12</ele>
        <time>2021-10-13T12:59:16Z</time>
      </trkpt>
      <trkpt lat="46.26598" lon="6.26719">
        <ele>478.12</ele>
        <time>2021-10-13T12:59:22Z</time>
      </trkpt>
      <trkpt lat="46.26579" lon="6.26711">
        <ele>478.12</ele>
        <time>2021-10-13T12:59:29Z</time>
      </trkpt>
      <trkpt lat="46.26562" lon="6.267">
        <ele>478.12</ele>
        <time>2021-10-13T12:59:35Z</time>
      </trkpt>
      <trkpt lat="46.26541" lon="6.26692">
        <ele>478.12</ele>
        <time>2021-10-13T12:59:41Z</time>
      </trkpt>
      <trkpt lat="46.26521" lon="6.26684">
        <ele>478.12</ele>
        <time>2021-10-13T12:59:47Z</time>
      </trkpt>
      <trkpt lat="46.26503" lon="6.26673">
        <ele>478.12</ele>
        <time>2021-10-13T12:59:54Z</time>
      </trkpt>
      <trkpt lat="46.26485" lon="6.26667">
        <ele>478.12</ele>
        <time>2021-10-13T13:00:00Z</time>
      </trkpt>
      <trkpt lat="46.26466" lon="6.26667">
        <ele>485.53</ele>
        <time>2021-10-13T13:00:05Z</time>
      </trkpt>
      <trkpt lat="46.26447" lon="6.26668">
        <ele>485.73</ele>
        <time>2021-10-13T13:00:10Z</time>
      </trkpt>
      <trkpt lat="46.26428" lon="6.26667">
        <ele>485.83</ele>
        <time>2021-10-13T13:00:15Z</time>
      </trkpt>
      <trkpt lat="46.26407" lon="6.26669">
        <ele>485.97</ele>
        <time>2021-10-13T13:00:20Z</time>
      </trkpt>
      <trkpt lat="46.26389" lon="6.2667">
        <ele>486.31</ele>
        <time>2021-10-13T13:00:25Z</time>
      </trkpt>
      <trkpt lat="46.26369" lon="6.26663">
        <ele>486.94</ele>
        <time>2021-10-13T13:00:31Z</time>
      </trkpt>
      <trkpt lat="46.26352" lon="6.26654">
        <ele>487.59</ele>
        <time>2021-10-13T13:00:36Z</time>
      </trkpt>
      <trkpt lat="46.26333" lon="6.26643">
        <ele>487.91</ele>
        <time>2021-10-13T13:00:41Z</time>
      </trkpt>
      <trkpt lat="46.26316" lon="6.26631">
        <ele>488.16</ele>
        <time>2021-10-13T13:00:45Z</time>
      </trkpt>
      <trkpt lat="46.26299" lon="6.26621">
        <ele>488.09</ele>
        <time>2021-10-13T13:00:49Z</time>
      </trkpt>
      <trkpt lat="46.26282" lon="6.26609">
        <ele>488.04</ele>
        <time>2021-10-13T13:00:53Z</time>
      </trkpt>
      <trkpt lat="46.26265" lon="6.26598">
        <ele>488.05</ele>
        <time>2021-10-13T13:00:57Z</time>
      </trkpt>
      <trkpt lat="46.26246" lon="6.26587">
        <ele>488.04</ele>
        <time>2021-10-13T13:01:01Z</time>
      </trkpt>
      <trkpt lat="46.26229" lon="6.26578">
        <ele>488.11</ele>
        <time>2021-10-13T13:01:05Z</time>
      </trkpt>
      <trkpt lat="46.26211" lon="6.26568">
        <ele>488.26</ele>
        <time>2021-10-13T13:01:10Z</time>
      </trkpt>
      <trkpt lat="46.26191" lon="6.26558">
        <ele>488.41</ele>
        <time>2021-10-13T13:01:15Z</time>
      </trkpt>
      <trkpt lat="46.26169" lon="6.26549">
        <ele>488.42</ele>
        <time>2021-10-13T13:01:20Z</time>
      </trkpt>
      <trkpt lat="46.26148" lon="6.26538">
        <ele>488.48</ele>
        <time>2021-10-13T13:01:25Z</time>
      </trkpt>
      <trkpt lat="46.26128" lon="6.26529">
        <ele>488.51</ele>
        <time>2021-10-13T13:01:30Z</time>
      </trkpt>
      <trkpt lat="46.26109" lon="6.26519">
        <ele>488.62</ele>
        <time>2021-10-13T13:01:35Z</time>
      </trkpt>
      <trkpt lat="46.26089" lon="6.26509">
        <ele>488.84</ele>
        <time>2021-10-13T13:01:40Z</time>
      </trkpt>
      <trkpt lat="46.26069" lon="6.26501">
        <ele>489.14</ele>
        <time>2021-10-13T13:01:46Z</time>
      </trkpt>
      <trkpt lat="46.26049" lon="6.26493">
        <ele>489.32</ele>
        <time>2021-10-13T13:01:52Z</time>
      </trkpt>
      <trkpt lat="46.26029" lon="6.26481">
        <ele>489.33</ele>
        <time>2021-10-13T13:01:57Z</time>
      </trkpt>
      <trkpt lat="46.26011" lon="6.26472">
        <ele>489.59</ele>
        <time>2021-10-13T13:02:01Z</time>
      </trkpt>
      <trkpt lat="46.25994" lon="6.26463">
        <ele>489.97</ele>
        <time>2021-10-13T13:02:05Z</time>
      </trkpt>
      <trkpt lat="46.25977" lon="6.26453">
        <ele>490.32</ele>
        <time>2021-10-13T13:02:10Z</time>
      </trkpt>
      <trkpt lat="46.2596" lon="6.26442">
        <ele>490.49</ele>
        <time>2021-10-13T13:02:15Z</time>
      </trkpt>
      <trkpt lat="46.25943" lon="6.26426">
        <ele>490.98</ele>
        <time>2021-10-13T13:02:20Z</time>
      </trkpt>
      <trkpt lat="46.25924" lon="6.26412">
        <ele>491.4</ele>
        <time>2021-10-13T13:02:25Z</time>
      </trkpt>
      <trkpt lat="46.25906" lon="6.26403">
        <ele>491.71</ele>
        <time>2021-10-13T13:02:31Z</time>
      </trkpt>
      <trkpt lat="46.25886" lon="6.26405">
        <ele>492.09</ele>
        <time>2021-10-13T13:02:37Z</time>
      </trkpt>
      <trkpt lat="46.25864" lon="6.26402">
        <ele>492.43</ele>
        <time>2021-10-13T13:02:42Z</time>
      </trkpt>
      <trkpt lat="46.25843" lon="6.26399">
        <ele>492.8</ele>
        <time>2021-10-13T13:02:47Z</time>
      </trkpt>
      <trkpt lat="46.25823" lon="6.26396">
        <ele>493.47</ele>
        <time>2021-10-13T13:02:52Z</time>
      </trkpt>
      <trkpt lat="46.25802" lon="6.26392">
        <ele>493.63</ele>
        <time>2021-10-13T13:02:57Z</time>
      </trkpt>
      <trkpt lat="46.25784" lon="6.26387">
        <ele>493.64</ele>
        <time>2021-10-13T13:03:01Z</time>
      </trkpt>
      <trkpt lat="46.25766" lon="6.26381">
        <ele>493.95</ele>
        <time>2021-10-13T13:03:05Z</time>
      </trkpt>
      <trkpt lat="46.25754" lon="6.26402">
        <ele>494.39</ele>
        <time>2021-10-13T13:03:10Z</time>
      </trkpt>
      <trkpt lat="46.25745" lon="6.26428">
        <ele>494.49</ele>
        <time>2021-10-13T13:03:15Z</time>
      </trkpt>
      <trkpt lat="46.25736" lon="6.26457">
        <ele>494.75</ele>
        <time>2021-10-13T13:03:20Z</time>
      </trkpt>
      <trkpt lat="46.25726" lon="6.26486">
        <ele>495.22</ele>
        <time>2021-10-13T13:03:25Z</time>
      </trkpt>
      <trkpt lat="46.25716" lon="6.26514">
        <ele>495.73</ele>
        <time>2021-10-13T13:03:30Z</time>
      </trkpt>
      <trkpt lat="46.25706" lon="6.26542">
        <ele>496.19</ele>
        <time>2021-10-13T13:03:35Z</time>
      </trkpt>
      <trkpt lat="46.25697" lon="6.26569">
        <ele>496.74</ele>
        <time>2021-10-13T13:03:40Z</time>
      </trkpt>
      <trkpt lat="46.25688" lon="6.26595">
        <ele>497.48</ele>
        <time>2021-10-13T13:03:46Z</time>
      </trkpt>
      <trkpt lat="46.25678" lon="6.2662">
        <ele>498.04</ele>
        <time>2021-10-13T13:03:51Z</time>
      </trkpt>
      <trkpt lat="46.25665" lon="6.26645">
        <ele>498.35</ele>
        <time>2021-10-13T13:03:56Z</time>
      </trkpt>
      <trkpt lat="46.25654" lon="6.26669">
        <ele>498.83</ele>
        <time>2021-10-13T13:04:01Z</time>
      </trkpt>
      <trkpt lat="46.2564" lon="6.26692">
        <ele>499.47</ele>
        <time>2021-10-13T13:04:07Z</time>
      </trkpt>
      <trkpt lat="46.25627" lon="6.26712">
        <ele>499.7</ele>
        <time>2021-10-13T13:04:12Z</time>
      </trkpt>
      <trkpt lat="46.25614" lon="6.26734">
        <ele>499.97</ele>
        <time>2021-10-13T13:04:17Z</time>
      </trkpt>
      <trkpt lat="46.25605" lon="6.26762">
        <ele>500.24</ele>
        <time>2021-10-13T13:04:23Z</time>
      </trkpt>
      <trkpt lat="46.25595" lon="6.2679">
        <ele>500.49</ele>
        <time>2021-10-13T13:04:28Z</time>
      </trkpt>
      <trkpt lat="46.25584" lon="6.26814">
        <ele>500.9</ele>
        <time>2021-10-13T13:04:32Z</time>
      </trkpt>
      <trkpt lat="46.25574" lon="6.26838">
        <ele>501.08</ele>
        <time>2021-10-13T13:04:36Z</time>
      </trkpt>
      <trkpt lat="46.25564" lon="6.26861">
        <ele>501.34</ele>
        <time>2021-10-13T13:04:41Z</time>
      </trkpt>
      <trkpt lat="46.25553" lon="6.26887">
        <ele>501.67</ele>
        <time>2021-10-13T13:04:47Z</time>
      </trkpt>
      <trkpt lat="46.25543" lon="6.26909">
        <ele>502.42</ele>
        <time>2021-10-13T13:04:52Z</time>
      </trkpt>
      <trkpt lat="46.25533" lon="6.26932">
        <ele>503.06</ele>
        <time>2021-10-13T13:04:57Z</time>
      </trkpt>
      <trkpt lat="46.25522" lon="6.26955">
        <ele>503.3</ele>
        <time>2021-10-13T13:05:02Z</time>
      </trkpt>
      <trkpt lat="46.2551" lon="6.26978">
        <ele>503.46</ele>
        <time>2021-10-13T13:05:08Z</time>
      </trkpt>
      <trkpt lat="46.25498" lon="6.27">
        <ele>503.59</ele>
        <time>2021-10-13T13:05:13Z</time>
      </trkpt>
      <trkpt lat="46.25486" lon="6.27021">
        <ele>503.92</ele>
        <time>2021-10-13T13:05:18Z</time>
      </trkpt>
      <trkpt lat="46.25474" lon="6.27044">
        <ele>504.32</ele>
        <time>2021-10-13T13:05:23Z</time>
      </trkpt>
      <trkpt lat="46.25464" lon="6.27067">
        <ele>504.71</ele>
        <time>2021-10-13T13:05:29Z</time>
      </trkpt>
      <trkpt lat="46.25454" lon="6.2709">
        <ele>505.07</ele>
        <time>2021-10-13T13:05:34Z</time>
      </trkpt>
      <trkpt lat="46.25441" lon="6.27115">
        <ele>505.44</ele>
        <time>2021-10-13T13:05:39Z</time>
      </trkpt>
      <trkpt lat="46.2543" lon="6.27136">
        <ele>505.86</ele>
        <time>2021-10-13T13:05:44Z</time>
      </trkpt>
      <trkpt lat="46.25417" lon="6.27157">
        <ele>505.74</ele>
        <time>2021-10-13T13:05:50Z</time>
      </trkpt>
      <trkpt lat="46.25405" lon="6.27176">
        <ele>505.84</ele>
        <time>2021-10-13T13:05:55Z</time>
      </trkpt>
      <trkpt lat="46.25393" lon="6.27196">
        <ele>506.49</ele>
        <time>2021-10-13T13:06:00Z</time>
      </trkpt>
      <trkpt lat="46.2538" lon="6.27219">
        <ele>507.48</ele>
        <time>2021-10-13T13:06:06Z</time>
      </trkpt>
      <trkpt lat="46.25369" lon="6.27241">
        <ele>508.13</ele>
        <time>2021-10-13T13:06:12Z</time>
      </trkpt>
      <trkpt lat="46.25353" lon="6.27257">
        <ele>508.56</ele>
        <time>2021-10-13T13:06:19Z</time>
      </trkpt>
      <trkpt lat="46.25336" lon="6.27272">
        <ele>509.17</ele>
        <time>2021-10-13T13:06:25Z</time>
      </trkpt>
      <trkpt lat="46.25316" lon="6.27288">
        <ele>509.52</ele>
        <time>2021-10-13T13:06:30Z</time>
      </trkpt>
      <trkpt lat="46.25301" lon="6.27301">
        <ele>509.85</ele>
        <time>2021-10-13T13:06:34Z</time>
      </trkpt>
      <trkpt lat="46.25285" lon="6.27318">
        <ele>510.21</ele>
        <time>2021-10-13T13:06:40Z</time>
      </trkpt>
      <trkpt lat="46.25269" lon="6.27335">
        <ele>510.43</ele>
        <time>2021-10-13T13:06:46Z</time>
      </trkpt>
      <trkpt lat="46.25257" lon="6.27356">
        <ele>510.95</ele>
        <time>2021-10-13T13:06:52Z</time>
      </trkpt>
      <trkpt lat="46.25241" lon="6.27375">
        <ele>512.43</ele>
        <time>2021-10-13T13:07:01Z</time>
      </trkpt>
      <trkpt lat="46.25223" lon="6.27381">
        <ele>513.63</ele>
        <time>2021-10-13T13:07:08Z</time>
      </trkpt>
      <trkpt lat="46.25209" lon="6.27357">
        <ele>513.92</ele>
        <time>2021-10-13T13:07:13Z</time>
      </trkpt>
      <trkpt lat="46.25194" lon="6.27337">
        <ele>513.99</ele>
        <time>2021-10-13T13:07:18Z</time>
      </trkpt>
      <trkpt lat="46.25176" lon="6.27328">
        <ele>513.96</ele>
        <time>2021-10-13T13:07:23Z</time>
      </trkpt>
      <trkpt lat="46.25158" lon="6.27344">
        <ele>513.64</ele>
        <time>2021-10-13T13:07:29Z</time>
      </trkpt>
      <trkpt lat="46.25143" lon="6.27361">
        <ele>513.07</ele>
        <time>2021-10-13T13:07:34Z</time>
      </trkpt>
      <trkpt lat="46.25123" lon="6.27379">
        <ele>512.22</ele>
        <time>2021-10-13T13:07:39Z</time>
      </trkpt>
      <trkpt lat="46.25106" lon="6.27396">
        <ele>511.3</ele>
        <time>2021-10-13T13:07:44Z</time>
      </trkpt>
      <trkpt lat="46.2509" lon="6.27412">
        <ele>510.86</ele>
        <time>2021-10-13T13:07:51Z</time>
      </trkpt>
      <trkpt lat="46.25074" lon="6.27428">
        <ele>510.89</ele>
        <time>2021-10-13T13:07:56Z</time>
      </trkpt>
      <trkpt lat="46.25055" lon="6.27447">
        <ele>511.19</ele>
        <time>2021-10-13T13:08:01Z</time>
      </trkpt>
      <trkpt lat="46.25048" lon="6.27475">
        <ele>508.45</ele>
        <time>2021-10-13T13:09:07Z</time>
      </trkpt>
      <trkpt lat="46.25054" lon="6.27504">
        <ele>509.1</ele>
        <time>2021-10-13T13:09:28Z</time>
      </trkpt>
      <trkpt lat="46.25061" lon="6.27533">
        <ele>509.18</ele>
        <time>2021-10-13T13:09:35Z</time>
      </trkpt>
      <trkpt lat="46.25069" lon="6.27561">
        <ele>509.21</ele>
        <time>2021-10-13T13:09:41Z</time>
      </trkpt>
      <trkpt lat="46.25076" lon="6.27589">
        <ele>509.36</ele>
        <time>2021-10-13T13:09:48Z</time>
      </trkpt>
      <trkpt lat="46.25086" lon="6.27615">
        <ele>509.73</ele>
        <time>2021-10-13T13:09:54Z</time>
      </trkpt>
      <trkpt lat="46.25085" lon="6.27641">
        <ele>509.81</ele>
        <time>2021-10-13T13:10:03Z</time>
      </trkpt>
      <trkpt lat="46.2507" lon="6.27663">
        <ele>509.87</ele>
        <time>2021-10-13T13:10:09Z</time>
      </trkpt>
      <trkpt lat="46.25054" lon="6.27682">
        <ele>510.03</ele>
        <time>2021-10-13T13:10:15Z</time>
      </trkpt>
      <trkpt lat="46.25038" lon="6.27702">
        <ele>510.7</ele>
        <time>2021-10-13T13:10:21Z</time>
      </trkpt>
      <trkpt lat="46.25023" lon="6.27723">
        <ele>511.58</ele>
        <time>2021-10-13T13:10:26Z</time>
      </trkpt>
      <trkpt lat="46.25007" lon="6.27726">
        <ele>512.09</ele>
        <time>2021-10-13T13:10:33Z</time>
      </trkpt>
      <trkpt lat="46.24986" lon="6.27731">
        <ele>512.71</ele>
        <time>2021-10-13T13:10:39Z</time>
      </trkpt>
      <trkpt lat="46.24971" lon="6.2775">
        <ele>513.12</ele>
        <time>2021-10-13T13:10:45Z</time>
      </trkpt>
      <trkpt lat="46.24956" lon="6.27769">
        <ele>513.66</ele>
        <time>2021-10-13T13:10:52Z</time>
      </trkpt>
      <trkpt lat="46.24942" lon="6.27787">
        <ele>514.02</ele>
        <time>2021-10-13T13:10:57Z</time>
      </trkpt>
      <trkpt lat="46.24927" lon="6.27804">
        <ele>514.49</ele>
        <time>2021-10-13T13:11:02Z</time>
      </trkpt>
      <trkpt lat="46.24913" lon="6.27823">
        <ele>514.83</ele>
        <time>2021-10-13T13:11:10Z</time>
      </trkpt>
      <trkpt lat="46.24897" lon="6.27842">
        <ele>515.1</ele>
        <time>2021-10-13T13:11:16Z</time>
      </trkpt>
      <trkpt lat="46.24882" lon="6.2786">
        <ele>515.42</ele>
        <time>2021-10-13T13:11:23Z</time>
      </trkpt>
      <trkpt lat="46.24876" lon="6.27882">
        <ele>515.57</ele>
        <time>2021-10-13T13:11:31Z</time>
      </trkpt>
      <trkpt lat="46.24892" lon="6.27895">
        <ele>516.2</ele>
        <time>2021-10-13T13:11:37Z</time>
      </trkpt>
      <trkpt lat="46.24905" lon="6.27916">
        <ele>516.08</ele>
        <time>2021-10-13T13:11:44Z</time>
      </trkpt>
      <trkpt lat="46.24889" lon="6.27934">
        <ele>515.89</ele>
        <time>2021-10-13T13:11:51Z</time>
      </trkpt>
      <trkpt lat="46.24872" lon="6.27953">
        <ele>516.32</ele>
        <time>2021-10-13T13:11:57Z</time>
      </trkpt>
      <trkpt lat="46.24854" lon="6.27968">
        <ele>516.84</ele>
        <time>2021-10-13T13:12:03Z</time>
      </trkpt>
      <trkpt lat="46.24837" lon="6.27986">
        <ele>517.27</ele>
        <time>2021-10-13T13:12:08Z</time>
      </trkpt>
      <trkpt lat="46.24822" lon="6.28009">
        <ele>517.88</ele>
        <time>2021-10-13T13:12:14Z</time>
      </trkpt>
      <trkpt lat="46.24803" lon="6.28028">
        <ele>518.53</ele>
        <time>2021-10-13T13:12:22Z</time>
      </trkpt>
      <trkpt lat="46.24786" lon="6.28044">
        <ele>519.16</ele>
        <time>2021-10-13T13:12:28Z</time>
      </trkpt>
      <trkpt lat="46.2477" lon="6.28066">
        <ele>519.82</ele>
        <time>2021-10-13T13:12:35Z</time>
      </trkpt>
      <trkpt lat="46.24758" lon="6.28093">
        <ele>520.38</ele>
        <time>2021-10-13T13:12:43Z</time>
      </trkpt>
      <trkpt lat="46.24736" lon="6.28105">
        <ele>520.81</ele>
        <time>2021-10-13T13:12:49Z</time>
      </trkpt>
      <trkpt lat="46.24721" lon="6.28129">
        <ele>521.25</ele>
        <time>2021-10-13T13:12:57Z</time>
      </trkpt>
      <trkpt lat="46.24706" lon="6.28156">
        <ele>521.61</ele>
        <time>2021-10-13T13:13:04Z</time>
      </trkpt>
      <trkpt lat="46.24689" lon="6.28181">
        <ele>522.06</ele>
        <time>2021-10-13T13:13:11Z</time>
      </trkpt>
      <trkpt lat="46.24672" lon="6.28205">
        <ele>522.77</ele>
        <time>2021-10-13T13:13:18Z</time>
      </trkpt>
      <trkpt lat="46.24658" lon="6.28231">
        <ele>523.7</ele>
        <time>2021-10-13T13:13:26Z</time>
      </trkpt>
      <trkpt lat="46.24646" lon="6.28257">
        <ele>524.17</ele>
        <time>2021-10-13T13:13:32Z</time>
      </trkpt>
      <trkpt lat="46.24652" lon="6.28284">
        <ele>524.79</ele>
        <time>2021-10-13T13:13:41Z</time>
      </trkpt>
      <trkpt lat="46.24662" lon="6.28312">
        <ele>524.96</ele>
        <time>2021-10-13T13:13:47Z</time>
      </trkpt>
      <trkpt lat="46.24661" lon="6.28346">
        <ele>524.96</ele>
        <time>2021-10-13T13:13:58Z</time>
      </trkpt>
      <trkpt lat="46.2466" lon="6.28368">
        <ele>526.13</ele>
        <time>2021-10-13T13:14:15Z</time>
      </trkpt>
      <trkpt lat="46.24674" lon="6.28391">
        <ele>526.41</ele>
        <time>2021-10-13T13:14:21Z</time>
      </trkpt>
      <trkpt lat="46.24689" lon="6.28417">
        <ele>526.38</ele>
        <time>2021-10-13T13:14:26Z</time>
      </trkpt>
      <trkpt lat="46.24704" lon="6.2844">
        <ele>526.45</ele>
        <time>2021-10-13T13:14:31Z</time>
      </trkpt>
      <trkpt lat="46.2472" lon="6.28462">
        <ele>526.44</ele>
        <time>2021-10-13T13:14:37Z</time>
      </trkpt>
      <trkpt lat="46.24737" lon="6.28482">
        <ele>526.1</ele>
        <time>2021-10-13T13:14:43Z</time>
      </trkpt>
      <trkpt lat="46.24752" lon="6.285">
        <ele>525.83</ele>
        <time>2021-10-13T13:14:47Z</time>
      </trkpt>
      <trkpt lat="46.24772" lon="6.28519">
        <ele>525.66</ele>
        <time>2021-10-13T13:14:51Z</time>
      </trkpt>
      <trkpt lat="46.24791" lon="6.28535">
        <ele>525.56</ele>
        <time>2021-10-13T13:14:55Z</time>
      </trkpt>
      <trkpt lat="46.24812" lon="6.28549">
        <ele>525.28</ele>
        <time>2021-10-13T13:15:00Z</time>
      </trkpt>
      <trkpt lat="46.24829" lon="6.28561">
        <ele>525.03</ele>
        <time>2021-10-13T13:15:05Z</time>
      </trkpt>
      <trkpt lat="46.24852" lon="6.28577">
        <ele>524.86</ele>
        <time>2021-10-13T13:15:10Z</time>
      </trkpt>
      <trkpt lat="46.2487" lon="6.2859">
        <ele>524.72</ele>
        <time>2021-10-13T13:15:14Z</time>
      </trkpt>
      <trkpt lat="46.24877" lon="6.28612">
        <ele>524.11</ele>
        <time>2021-10-13T13:15:21Z</time>
      </trkpt>
      <trkpt lat="46.24861" lon="6.28632">
        <ele>523.69</ele>
        <time>2021-10-13T13:15:27Z</time>
      </trkpt>
      <trkpt lat="46.24844" lon="6.28656">
        <ele>523.7</ele>
        <time>2021-10-13T13:15:32Z</time>
      </trkpt>
      <trkpt lat="46.24827" lon="6.28678">
        <ele>523.75</ele>
        <time>2021-10-13T13:15:38Z</time>
      </trkpt>
      <trkpt lat="46.2481" lon="6.28695">
        <ele>523.7</ele>
        <time>2021-10-13T13:15:45Z</time>
      </trkpt>
      <trkpt lat="46.2479" lon="6.28718">
        <ele>524.11</ele>
        <time>2021-10-13T13:15:51Z</time>
      </trkpt>
      <trkpt lat="46.24771" lon="6.28736">
        <ele>524.61</ele>
        <time>2021-10-13T13:15:56Z</time>
      </trkpt>
      <trkpt lat="46.24751" lon="6.28753">
        <ele>525.11</ele>
        <time>2021-10-13T13:16:00Z</time>
      </trkpt>
      <trkpt lat="46.24732" lon="6.28771">
        <ele>525.28</ele>
        <time>2021-10-13T13:16:05Z</time>
      </trkpt>
      <trkpt lat="46.24716" lon="6.288">
        <ele>525.5</ele>
        <time>2021-10-13T13:16:13Z</time>
      </trkpt>
      <trkpt lat="46.24707" lon="6.28829">
        <ele>526.03</ele>
        <time>2021-10-13T13:16:18Z</time>
      </trkpt>
      <trkpt lat="46.247" lon="6.28858">
        <ele>526.54</ele>
        <time>2021-10-13T13:16:23Z</time>
      </trkpt>
      <trkpt lat="46.24684" lon="6.28889">
        <ele>526.81</ele>
        <time>2021-10-13T13:16:30Z</time>
      </trkpt>
      <trkpt lat="46.24672" lon="6.28915">
        <ele>526.88</ele>
        <time>2021-10-13T13:16:36Z</time>
      </trkpt>
      <trkpt lat="46.24658" lon="6.28941">
        <ele>526.99</ele>
        <time>2021-10-13T13:16:41Z</time>
      </trkpt>
      <trkpt lat="46.24644" lon="6.28969">
        <ele>527.52</ele>
        <time>2021-10-13T13:16:46Z</time>
      </trkpt>
      <trkpt lat="46.24632" lon="6.29002">
        <ele>527.99</ele>
        <time>2021-10-13T13:16:54Z</time>
      </trkpt>
      <trkpt lat="46.24617" lon="6.29033">
        <ele>528.53</ele>
        <time>2021-10-13T13:17:01Z</time>
      </trkpt>
      <trkpt lat="46.246" lon="6.29058">
        <ele>529.14</ele>
        <time>2021-10-13T13:17:08Z</time>
      </trkpt>
      <trkpt lat="46.24583" lon="6.2908">
        <ele>529.82</ele>
        <time>2021-10-13T13:17:15Z</time>
      </trkpt>
      <trkpt lat="46.24563" lon="6.29103">
        <ele>530.59</ele>
        <time>2021-10-13T13:17:22Z</time>
      </trkpt>
      <trkpt lat="46.24547" lon="6.29124">
        <ele>531.18</ele>
        <time>2021-10-13T13:17:29Z</time>
      </trkpt>
      <trkpt lat="46.24529" lon="6.29145">
        <ele>531.69</ele>
        <time>2021-10-13T13:17:36Z</time>
      </trkpt>
      <trkpt lat="46.24509" lon="6.29163">
        <ele>532.13</ele>
        <time>2021-10-13T13:17:43Z</time>
      </trkpt>
      <trkpt lat="46.24485" lon="6.29183">
        <ele>532.53</ele>
        <time>2021-10-13T13:17:53Z</time>
      </trkpt>
      <trkpt lat="46.24467" lon="6.29207">
        <ele>532.96</ele>
        <time>2021-10-13T13:18:00Z</time>
      </trkpt>
      <trkpt lat="46.24452" lon="6.29239">
        <ele>534.65</ele>
        <time>2021-10-13T13:18:13Z</time>
      </trkpt>
      <trkpt lat="46.24433" lon="6.29272">
        <ele>534.68</ele>
        <time>2021-10-13T13:18:25Z</time>
      </trkpt>
      <trkpt lat="46.24419" lon="6.29298">
        <ele>534.52</ele>
        <time>2021-10-13T13:18:29Z</time>
      </trkpt>
      <trkpt lat="46.24402" lon="6.2933">
        <ele>534.49</ele>
        <time>2021-10-13T13:18:34Z</time>
      </trkpt>
      <trkpt lat="46.24393" lon="6.29359">
        <ele>534.71</ele>
        <time>2021-10-13T13:18:41Z</time>
      </trkpt>
      <trkpt lat="46.24382" lon="6.29396">
        <ele>534.92</ele>
        <time>2021-10-13T13:18:49Z</time>
      </trkpt>
      <trkpt lat="46.24372" lon="6.29433">
        <ele>535.52</ele>
        <time>2021-10-13T13:18:56Z</time>
      </trkpt>
      <trkpt lat="46.24365" lon="6.29463">
        <ele>535.82</ele>
        <time>2021-10-13T13:19:01Z</time>
      </trkpt>
      <trkpt lat="46.24353" lon="6.29493">
        <ele>536.32</ele>
        <time>2021-10-13T13:19:07Z</time>
      </trkpt>
      <trkpt lat="46.24336" lon="6.29517">
        <ele>536.57</ele>
        <time>2021-10-13T13:19:17Z</time>
      </trkpt>
      <trkpt lat="46.24316" lon="6.29502">
        <ele>536.79</ele>
        <time>2021-10-13T13:19:23Z</time>
      </trkpt>
      <trkpt lat="46.24296" lon="6.29486">
        <ele>537.19</ele>
        <time>2021-10-13T13:19:28Z</time>
      </trkpt>
      <trkpt lat="46.24276" lon="6.29468">
        <ele>537.27</ele>
        <time>2021-10-13T13:19:33Z</time>
      </trkpt>
      <trkpt lat="46.24257" lon="6.2945">
        <ele>537.23</ele>
        <time>2021-10-13T13:19:39Z</time>
      </trkpt>
      <trkpt lat="46.2424" lon="6.29466">
        <ele>536.79</ele>
        <time>2021-10-13T13:19:49Z</time>
      </trkpt>
      <trkpt lat="46.24227" lon="6.29489">
        <ele>537.19</ele>
        <time>2021-10-13T13:19:55Z</time>
      </trkpt>
      <trkpt lat="46.24218" lon="6.29517">
        <ele>537.52</ele>
        <time>2021-10-13T13:20:00Z</time>
      </trkpt>
      <trkpt lat="46.24205" lon="6.29549">
        <ele>537.7</ele>
        <time>2021-10-13T13:20:08Z</time>
      </trkpt>
      <trkpt lat="46.24187" lon="6.29572">
        <ele>538.03</ele>
        <time>2021-10-13T13:20:15Z</time>
      </trkpt>
      <trkpt lat="46.24173" lon="6.29596">
        <ele>538.65</ele>
        <time>2021-10-13T13:20:21Z</time>
      </trkpt>
      <trkpt lat="46.24148" lon="6.29627">
        <ele>539.78</ele>
        <time>2021-10-13T13:20:45Z</time>
      </trkpt>
      <trkpt lat="46.24138" lon="6.29651">
        <ele>539.97</ele>
        <time>2021-10-13T13:20:55Z</time>
      </trkpt>
      <trkpt lat="46.24126" lon="6.29676">
        <ele>540.65</ele>
        <time>2021-10-13T13:21:01Z</time>
      </trkpt>
      <trkpt lat="46.24113" lon="6.297">
        <ele>541.4</ele>
        <time>2021-10-13T13:21:10Z</time>
      </trkpt>
      <trkpt lat="46.24102" lon="6.29726">
        <ele>541.8</ele>
        <time>2021-10-13T13:21:19Z</time>
      </trkpt>
      <trkpt lat="46.24091" lon="6.2975">
        <ele>542.41</ele>
        <time>2021-10-13T13:21:25Z</time>
      </trkpt>
      <trkpt lat="46.2408" lon="6.29777">
        <ele>543.35</ele>
        <time>2021-10-13T13:21:33Z</time>
      </trkpt>
      <trkpt lat="46.24062" lon="6.29798">
        <ele>544.05</ele>
        <time>2021-10-13T13:21:42Z</time>
      </trkpt>
      <trkpt lat="46.24041" lon="6.29784">
        <ele>544.51</ele>
        <time>2021-10-13T13:21:48Z</time>
      </trkpt>
      <trkpt lat="46.24025" lon="6.29762">
        <ele>544.75</ele>
        <time>2021-10-13T13:21:53Z</time>
      </trkpt>
      <trkpt lat="46.24009" lon="6.2974">
        <ele>544.75</ele>
        <time>2021-10-13T13:21:59Z</time>
      </trkpt>
      <trkpt lat="46.23993" lon="6.2972">
        <ele>544.56</ele>
        <time>2021-10-13T13:22:06Z</time>
      </trkpt>
      <trkpt lat="46.23977" lon="6.29698">
        <ele>544.55</ele>
        <time>2021-10-13T13:22:13Z</time>
      </trkpt>
      <trkpt lat="46.23962" lon="6.29675">
        <ele>544.25</ele>
        <time>2021-10-13T13:22:20Z</time>
      </trkpt>
      <trkpt lat="46.23948" lon="6.29643">
        <ele>543.35</ele>
        <time>2021-10-13T13:22:49Z</time>
      </trkpt>
      <trkpt lat="46.23938" lon="6.29612">
        <ele>543.35</ele>
        <time>2021-10-13T13:22:58Z</time>
      </trkpt>
      <trkpt lat="46.23928" lon="6.29585">
        <ele>543.35</ele>
        <time>2021-10-13T13:23:03Z</time>
      </trkpt>
      <trkpt lat="46.23919" lon="6.29559">
        <ele>543.35</ele>
        <time>2021-10-13T13:23:07Z</time>
      </trkpt>
      <trkpt lat="46.23907" lon="6.29534">
        <ele>543.35</ele>
        <time>2021-10-13T13:23:12Z</time>
      </trkpt>
      <trkpt lat="46.23894" lon="6.29508">
        <ele>543.35</ele>
        <time>2021-10-13T13:23:18Z</time>
      </trkpt>
      <trkpt lat="46.23881" lon="6.29482">
        <ele>543.35</ele>
        <time>2021-10-13T13:23:25Z</time>
      </trkpt>
      <trkpt lat="46.23863" lon="6.29459">
        <ele>543.35</ele>
        <time>2021-10-13T13:23:31Z</time>
      </trkpt>
      <trkpt lat="46.23845" lon="6.2944">
        <ele>543.35</ele>
        <time>2021-10-13T13:23:36Z</time>
      </trkpt>
      <trkpt lat="46.23828" lon="6.29427">
        <ele>543.35</ele>
        <time>2021-10-13T13:23:42Z</time>
      </trkpt>
      <trkpt lat="46.23808" lon="6.29411">
        <ele>543.35</ele>
        <time>2021-10-13T13:23:48Z</time>
      </trkpt>
      <trkpt lat="46.23791" lon="6.29398">
        <ele>543.35</ele>
        <time>2021-10-13T13:23:53Z</time>
      </trkpt>
      <trkpt lat="46.23773" lon="6.29383">
        <ele>543.35</ele>
        <time>2021-10-13T13:23:58Z</time>
      </trkpt>
      <trkpt lat="46.23757" lon="6.29369">
        <ele>543.35</ele>
        <time>2021-10-13T13:24:02Z</time>
      </trkpt>
      <trkpt lat="46.23741" lon="6.29355">
        <ele>543.35</ele>
        <time>2021-10-13T13:24:06Z</time>
      </trkpt>
      <trkpt lat="46.23724" lon="6.29342">
        <ele>543.35</ele>
        <time>2021-10-13T13:24:10Z</time>
      </trkpt>
      <trkpt lat="46.23706" lon="6.29324">
        <ele>543.35</ele>
        <time>2021-10-13T13:24:15Z</time>
      </trkpt>
      <trkpt lat="46.23688" lon="6.2931">
        <ele>543.35</ele>
        <time>2021-10-13T13:24:20Z</time>
      </trkpt>
      <trkpt lat="46.23668" lon="6.29296">
        <ele>543.35</ele>
        <time>2021-10-13T13:24:26Z</time>
      </trkpt>
      <trkpt lat="46.2365" lon="6.29278">
        <ele>543.35</ele>
        <time>2021-10-13T13:24:32Z</time>
      </trkpt>
      <trkpt lat="46.23635" lon="6.29259">
        <ele>543.35</ele>
        <time>2021-10-13T13:24:37Z</time>
      </trkpt>
      <trkpt lat="46.2362" lon="6.2924">
        <ele>543.35</ele>
        <time>2021-10-13T13:24:42Z</time>
      </trkpt>
      <trkpt lat="46.23604" lon="6.29221">
        <ele>543.35</ele>
        <time>2021-10-13T13:24:47Z</time>
      </trkpt>
      <trkpt lat="46.23589" lon="6.29205">
        <ele>543.35</ele>
        <time>2021-10-13T13:24:52Z</time>
      </trkpt>
      <trkpt lat="46.23573" lon="6.29184">
        <ele>543.35</ele>
        <time>2021-10-13T13:24:58Z</time>
      </trkpt>
      <trkpt lat="46.23557" lon="6.29165">
        <ele>543.35</ele>
        <time>2021-10-13T13:25:04Z</time>
      </trkpt>
      <trkpt lat="46.23541" lon="6.29148">
        <ele>543.35</ele>
        <time>2021-10-13T13:25:12Z</time>
      </trkpt>
      <trkpt lat="46.23526" lon="6.29126">
        <ele>543.35</ele>
        <time>2021-10-13T13:25:18Z</time>
      </trkpt>
      <trkpt lat="46.23512" lon="6.29107">
        <ele>543.35</ele>
        <time>2021-10-13T13:25:23Z</time>
      </trkpt>
      <trkpt lat="46.23497" lon="6.29086">
        <ele>543.35</ele>
        <time>2021-10-13T13:25:28Z</time>
      </trkpt>
      <trkpt lat="46.23481" lon="6.29064">
        <ele>543.35</ele>
        <time>2021-10-13T13:25:33Z</time>
      </trkpt>
      <trkpt lat="46.23465" lon="6.29043">
        <ele>543.35</ele>
        <time>2021-10-13T13:25:37Z</time>
      </trkpt>
      <trkpt lat="46.23447" lon="6.2902">
        <ele>543.35</ele>
        <time>2021-10-13T13:25:41Z</time>
      </trkpt>
      <trkpt lat="46.23431" lon="6.28999">
        <ele>543.35</ele>
        <time>2021-10-13T13:25:45Z</time>
      </trkpt>
      <trkpt lat="46.23417" lon="6.28979">
        <ele>543.35</ele>
        <time>2021-10-13T13:25:49Z</time>
      </trkpt>
      <trkpt lat="46.23403" lon="6.28961">
        <ele>543.35</ele>
        <time>2021-10-13T13:25:53Z</time>
      </trkpt>
      <trkpt lat="46.23388" lon="6.2894">
        <ele>543.35</ele>
        <time>2021-10-13T13:25:58Z</time>
      </trkpt>
      <trkpt lat="46.23373" lon="6.28916">
        <ele>543.35</ele>
        <time>2021-10-13T13:26:04Z</time>
      </trkpt>
      <trkpt lat="46.23362" lon="6.28892">
        <ele>543.35</ele>
        <time>2021-10-13T13:26:09Z</time>
      </trkpt>
      <trkpt lat="46.23356" lon="6.28866">
        <ele>543.35</ele>
        <time>2021-10-13T13:26:13Z</time>
      </trkpt>
      <trkpt lat="46.23355" lon="6.28839">
        <ele>543.35</ele>
        <time>2021-10-13T13:26:17Z</time>
      </trkpt>
      <trkpt lat="46.23353" lon="6.28811">
        <ele>543.35</ele>
        <time>2021-10-13T13:26:24Z</time>
      </trkpt>
      <trkpt lat="46.23347" lon="6.28821">
        <ele>543.35</ele>
        <time>2021-10-13T13:26:38Z</time>
      </trkpt>
      <trkpt lat="46.23345" lon="6.28829">
        <ele>543.35</ele>
        <time>2021-10-13T13:26:52Z</time>
      </trkpt>
      <trkpt lat="46.23356" lon="6.28804">
        <ele>543.35</ele>
        <time>2021-10-13T13:26:59Z</time>
      </trkpt>
      <trkpt lat="46.23359" lon="6.28775">
        <ele>543.35</ele>
        <time>2021-10-13T13:27:05Z</time>
      </trkpt>
      <trkpt lat="46.23362" lon="6.28746">
        <ele>543.35</ele>
        <time>2021-10-13T13:27:11Z</time>
      </trkpt>
      <trkpt lat="46.23368" lon="6.28719">
        <ele>543.35</ele>
        <time>2021-10-13T13:27:16Z</time>
      </trkpt>
      <trkpt lat="46.23375" lon="6.28695">
        <ele>543.35</ele>
        <time>2021-10-13T13:27:21Z</time>
      </trkpt>
      <trkpt lat="46.23383" lon="6.28668">
        <ele>543.35</ele>
        <time>2021-10-13T13:27:28Z</time>
      </trkpt>
      <trkpt lat="46.23391" lon="6.28643">
        <ele>543.35</ele>
        <time>2021-10-13T13:27:34Z</time>
      </trkpt>
      <trkpt lat="46.234" lon="6.28617">
        <ele>543.35</ele>
        <time>2021-10-13T13:27:40Z</time>
      </trkpt>
      <trkpt lat="46.23409" lon="6.28593">
        <ele>543.35</ele>
        <time>2021-10-13T13:27:45Z</time>
      </trkpt>
      <trkpt lat="46.23414" lon="6.28566">
        <ele>543.35</ele>
        <time>2021-10-13T13:27:50Z</time>
      </trkpt>
      <trkpt lat="46.23407" lon="6.2854">
        <ele>543.35</ele>
        <time>2021-10-13T13:27:55Z</time>
      </trkpt>
      <trkpt lat="46.23393" lon="6.2852">
        <ele>543.35</ele>
        <time>2021-10-13T13:28:00Z</time>
      </trkpt>
      <trkpt lat="46.23376" lon="6.285">
        <ele>543.35</ele>
        <time>2021-10-13T13:28:05Z</time>
      </trkpt>
      <trkpt lat="46.23359" lon="6.2848">
        <ele>543.35</ele>
        <time>2021-10-13T13:28:09Z</time>
      </trkpt>
      <trkpt lat="46.23346" lon="6.28461">
        <ele>543.35</ele>
        <time>2021-10-13T13:28:12Z</time>
      </trkpt>
      <trkpt lat="46.23334" lon="6.28432">
        <ele>543.35</ele>
        <time>2021-10-13T13:28:16Z</time>
      </trkpt>
      <trkpt lat="46.23324" lon="6.28403">
        <ele>543.35</ele>
        <time>2021-10-13T13:28:20Z</time>
      </trkpt>
      <trkpt lat="46.23314" lon="6.28376">
        <ele>543.35</ele>
        <time>2021-10-13T13:28:24Z</time>
      </trkpt>
      <trkpt lat="46.23305" lon="6.28351">
        <ele>543.35</ele>
        <time>2021-10-13T13:28:28Z</time>
      </trkpt>
      <trkpt lat="46.23303" lon="6.28324">
        <ele>543.35</ele>
        <time>2021-10-13T13:28:32Z</time>
      </trkpt>
      <trkpt lat="46.2331" lon="6.28294">
        <ele>538.33</ele>
        <time>2021-10-13T13:28:37Z</time>
      </trkpt>
      <trkpt lat="46.2331" lon="6.28273">
        <ele>538.48</ele>
        <time>2021-10-13T13:28:44Z</time>
      </trkpt>
      <trkpt lat="46.23298" lon="6.28295">
        <ele>538.81</ele>
        <time>2021-10-13T13:28:52Z</time>
      </trkpt>
      <trkpt lat="46.23285" lon="6.28316">
        <ele>538.88</ele>
        <time>2021-10-13T13:28:57Z</time>
      </trkpt>
      <trkpt lat="46.23273" lon="6.28337">
        <ele>539.05</ele>
        <time>2021-10-13T13:29:02Z</time>
      </trkpt>
      <trkpt lat="46.2326" lon="6.28357">
        <ele>539.38</ele>
        <time>2021-10-13T13:29:07Z</time>
      </trkpt>
      <trkpt lat="46.23246" lon="6.28379">
        <ele>539.89</ele>
        <time>2021-10-13T13:29:13Z</time>
      </trkpt>
      <trkpt lat="46.23233" lon="6.28401">
        <ele>540.27</ele>
        <time>2021-10-13T13:29:19Z</time>
      </trkpt>
      <trkpt lat="46.23218" lon="6.28424">
        <ele>540.44</ele>
        <time>2021-10-13T13:29:25Z</time>
      </trkpt>
      <trkpt lat="46.23207" lon="6.28447">
        <ele>540.56</ele>
        <time>2021-10-13T13:29:31Z</time>
      </trkpt>
      <trkpt lat="46.2319" lon="6.28461">
        <ele>539.1</ele>
        <time>2021-10-13T13:29:45Z</time>
      </trkpt>
      <trkpt lat="46.2317" lon="6.28443">
        <ele>538.87</ele>
        <time>2021-10-13T13:29:52Z</time>
      </trkpt>
      <trkpt lat="46.23158" lon="6.28441">
        <ele>538.74</ele>
        <time>2021-10-13T13:30:28Z</time>
      </trkpt>
      <trkpt lat="46.23138" lon="6.28417">
        <ele>538.9</ele>
        <time>2021-10-13T13:31:03Z</time>
      </trkpt>
      <trkpt lat="46.23124" lon="6.28392">
        <ele>539.23</ele>
        <time>2021-10-13T13:31:12Z</time>
      </trkpt>
      <trkpt lat="46.23117" lon="6.2836">
        <ele>538.76</ele>
        <time>2021-10-13T13:31:23Z</time>
      </trkpt>
      <trkpt lat="46.23106" lon="6.28329">
        <ele>538.39</ele>
        <time>2021-10-13T13:31:33Z</time>
      </trkpt>
      <trkpt lat="46.2309" lon="6.28297">
        <ele>537.36</ele>
        <time>2021-10-13T13:32:00Z</time>
      </trkpt>
      <trkpt lat="46.23076" lon="6.2827">
        <ele>537.1</ele>
        <time>2021-10-13T13:32:10Z</time>
      </trkpt>
      <trkpt lat="46.23074" lon="6.28231">
        <ele>536.93</ele>
        <time>2021-10-13T13:32:30Z</time>
      </trkpt>
      <trkpt lat="46.2307" lon="6.28197">
        <ele>536.86</ele>
        <time>2021-10-13T13:32:48Z</time>
      </trkpt>
      <trkpt lat="46.23054" lon="6.28179">
        <ele>536.51</ele>
        <time>2021-10-13T13:32:58Z</time>
      </trkpt>
      <trkpt lat="46.23042" lon="6.28148">
        <ele>536.52</ele>
        <time>2021-10-13T13:33:15Z</time>
      </trkpt>
      <trkpt lat="46.23025" lon="6.28131">
        <ele>536.33</ele>
        <time>2021-10-13T13:33:26Z</time>
      </trkpt>
      <trkpt lat="46.23004" lon="6.28101">
        <ele>536.04</ele>
        <time>2021-10-13T13:33:49Z</time>
      </trkpt>
      <trkpt lat="46.22986" lon="6.2808">
        <ele>535.89</ele>
        <time>2021-10-13T13:33:59Z</time>
      </trkpt>
      <trkpt lat="46.22968" lon="6.28056">
        <ele>536.44</ele>
        <time>2021-10-13T13:34:15Z</time>
      </trkpt>
      <trkpt lat="46.22951" lon="6.28039">
        <ele>536.25</ele>
        <time>2021-10-13T13:34:24Z</time>
      </trkpt>
      <trkpt lat="46.22935" lon="6.28016">
        <ele>536.65</ele>
        <time>2021-10-13T13:34:33Z</time>
      </trkpt>
      <trkpt lat="46.22917" lon="6.28">
        <ele>537.12</ele>
        <time>2021-10-13T13:34:42Z</time>
      </trkpt>
      <trkpt lat="46.22891" lon="6.27978">
        <ele>538.03</ele>
        <time>2021-10-13T13:35:44Z</time>
      </trkpt>
      <trkpt lat="46.22876" lon="6.2796">
        <ele>538.05</ele>
        <time>2021-10-13T13:35:54Z</time>
      </trkpt>
      <trkpt lat="46.22856" lon="6.27944">
        <ele>538.16</ele>
        <time>2021-10-13T13:36:02Z</time>
      </trkpt>
      <trkpt lat="46.2284" lon="6.27921">
        <ele>538.21</ele>
        <time>2021-10-13T13:36:10Z</time>
      </trkpt>
      <trkpt lat="46.22827" lon="6.27916">
        <ele>535.28</ele>
        <time>2021-10-13T13:39:28Z</time>
      </trkpt>
      <trkpt lat="46.22828" lon="6.27946">
        <ele>535.28</ele>
        <time>2021-10-13T13:39:36Z</time>
      </trkpt>
      <trkpt lat="46.2283" lon="6.27975">
        <ele>535.28</ele>
        <time>2021-10-13T13:39:43Z</time>
      </trkpt>
      <trkpt lat="46.22826" lon="6.28003">
        <ele>539.11</ele>
        <time>2021-10-13T13:39:49Z</time>
      </trkpt>
      <trkpt lat="46.22815" lon="6.28028">
        <ele>539.78</ele>
        <time>2021-10-13T13:39:57Z</time>
      </trkpt>
      <trkpt lat="46.22795" lon="6.28018">
        <ele>540.41</ele>
        <time>2021-10-13T13:40:03Z</time>
      </trkpt>
      <trkpt lat="46.22774" lon="6.28008">
        <ele>540.71</ele>
        <time>2021-10-13T13:40:08Z</time>
      </trkpt>
      <trkpt lat="46.22755" lon="6.27996">
        <ele>541.03</ele>
        <time>2021-10-13T13:40:15Z</time>
      </trkpt>
      <trkpt lat="46.22733" lon="6.27983">
        <ele>541.51</ele>
        <time>2021-10-13T13:40:22Z</time>
      </trkpt>
      <trkpt lat="46.22713" lon="6.2797">
        <ele>541.72</ele>
        <time>2021-10-13T13:40:28Z</time>
      </trkpt>
      <trkpt lat="46.22693" lon="6.27957">
        <ele>541.9</ele>
        <time>2021-10-13T13:40:35Z</time>
      </trkpt>
      <trkpt lat="46.22673" lon="6.27944">
        <ele>541.94</ele>
        <time>2021-10-13T13:40:41Z</time>
      </trkpt>
      <trkpt lat="46.22654" lon="6.27931">
        <ele>541.98</ele>
        <time>2021-10-13T13:40:47Z</time>
      </trkpt>
      <trkpt lat="46.22633" lon="6.27919">
        <ele>542.22</ele>
        <time>2021-10-13T13:40:53Z</time>
      </trkpt>
      <trkpt lat="46.22612" lon="6.2791">
        <ele>542.26</ele>
        <time>2021-10-13T13:41:01Z</time>
      </trkpt>
      <trkpt lat="46.22593" lon="6.2792">
        <ele>542.22</ele>
        <time>2021-10-13T13:41:08Z</time>
      </trkpt>
      <trkpt lat="46.22584" lon="6.27946">
        <ele>542.58</ele>
        <time>2021-10-13T13:41:15Z</time>
      </trkpt>
      <trkpt lat="46.22577" lon="6.27973">
        <ele>543.17</ele>
        <time>2021-10-13T13:41:22Z</time>
      </trkpt>
      <trkpt lat="46.22568" lon="6.28004">
        <ele>543.79</ele>
        <time>2021-10-13T13:41:31Z</time>
      </trkpt>
      <trkpt lat="46.22558" lon="6.28036">
        <ele>544.51</ele>
        <time>2021-10-13T13:41:38Z</time>
      </trkpt>
      <trkpt lat="46.22552" lon="6.28071">
        <ele>545.36</ele>
        <time>2021-10-13T13:41:48Z</time>
      </trkpt>
      <trkpt lat="46.22544" lon="6.28105">
        <ele>545.91</ele>
        <time>2021-10-13T13:41:57Z</time>
      </trkpt>
      <trkpt lat="46.22536" lon="6.28139">
        <ele>546.67</ele>
        <time>2021-10-13T13:42:06Z</time>
      </trkpt>
      <trkpt lat="46.22527" lon="6.28172">
        <ele>547.48</ele>
        <time>2021-10-13T13:42:14Z</time>
      </trkpt>
      <trkpt lat="46.22521" lon="6.28202">
        <ele>548.08</ele>
        <time>2021-10-13T13:42:22Z</time>
      </trkpt>
      <trkpt lat="46.22505" lon="6.28215">
        <ele>548.83</ele>
        <time>2021-10-13T13:42:32Z</time>
      </trkpt>
      <trkpt lat="46.22486" lon="6.28199">
        <ele>548.99</ele>
        <time>2021-10-13T13:42:39Z</time>
      </trkpt>
      <trkpt lat="46.22467" lon="6.28183">
        <ele>549.01</ele>
        <time>2021-10-13T13:42:45Z</time>
      </trkpt>
      <trkpt lat="46.2245" lon="6.2817">
        <ele>548.93</ele>
        <time>2021-10-13T13:42:53Z</time>
      </trkpt>
      <trkpt lat="46.22433" lon="6.28155">
        <ele>549.07</ele>
        <time>2021-10-13T13:43:03Z</time>
      </trkpt>
      <trkpt lat="46.22417" lon="6.28143">
        <ele>549.39</ele>
        <time>2021-10-13T13:43:09Z</time>
      </trkpt>
      <trkpt lat="46.22397" lon="6.28128">
        <ele>549.39</ele>
        <time>2021-10-13T13:43:15Z</time>
      </trkpt>
      <trkpt lat="46.22378" lon="6.28112">
        <ele>549.39</ele>
        <time>2021-10-13T13:43:20Z</time>
      </trkpt>
      <trkpt lat="46.2236" lon="6.28097">
        <ele>549.48</ele>
        <time>2021-10-13T13:43:26Z</time>
      </trkpt>
      <trkpt lat="46.22341" lon="6.28082">
        <ele>549.62</ele>
        <time>2021-10-13T13:43:33Z</time>
      </trkpt>
      <trkpt lat="46.22325" lon="6.28068">
        <ele>549.5</ele>
        <time>2021-10-13T13:43:38Z</time>
      </trkpt>
      <trkpt lat="46.22308" lon="6.28055">
        <ele>549.46</ele>
        <time>2021-10-13T13:43:42Z</time>
      </trkpt>
      <trkpt lat="46.22291" lon="6.28042">
        <ele>549.3</ele>
        <time>2021-10-13T13:43:47Z</time>
      </trkpt>
      <trkpt lat="46.22273" lon="6.28026">
        <ele>549.25</ele>
        <time>2021-10-13T13:43:54Z</time>
      </trkpt>
      <trkpt lat="46.22255" lon="6.2801">
        <ele>549.25</ele>
        <time>2021-10-13T13:43:59Z</time>
      </trkpt>
      <trkpt lat="46.22236" lon="6.27993">
        <ele>549.25</ele>
        <time>2021-10-13T13:44:05Z</time>
      </trkpt>
      <trkpt lat="46.22219" lon="6.27974">
        <ele>549.25</ele>
        <time>2021-10-13T13:44:11Z</time>
      </trkpt>
      <trkpt lat="46.22198" lon="6.27953">
        <ele>549.25</ele>
        <time>2021-10-13T13:44:16Z</time>
      </trkpt>
      <trkpt lat="46.22179" lon="6.27931">
        <ele>549.25</ele>
        <time>2021-10-13T13:44:20Z</time>
      </trkpt>
      <trkpt lat="46.22162" lon="6.27915">
        <ele>549.25</ele>
        <time>2021-10-13T13:44:24Z</time>
      </trkpt>
      <trkpt lat="46.22144" lon="6.27896">
        <ele>549.25</ele>
        <time>2021-10-13T13:44:29Z</time>
      </trkpt>
      <trkpt lat="46.22127" lon="6.27874">
        <ele>549.25</ele>
        <time>2021-10-13T13:44:35Z</time>
      </trkpt>
      <trkpt lat="46.2211" lon="6.27856">
        <ele>549.25</ele>
        <time>2021-10-13T13:44:41Z</time>
      </trkpt>
      <trkpt lat="46.22092" lon="6.27836">
        <ele>549.25</ele>
        <time>2021-10-13T13:44:47Z</time>
      </trkpt>
      <trkpt lat="46.22072" lon="6.27814">
        <ele>549.25</ele>
        <time>2021-10-13T13:44:52Z</time>
      </trkpt>
      <trkpt lat="46.22056" lon="6.27791">
        <ele>549.25</ele>
        <time>2021-10-13T13:44:57Z</time>
      </trkpt>
      <trkpt lat="46.22039" lon="6.27769">
        <ele>549.25</ele>
        <time>2021-10-13T13:45:03Z</time>
      </trkpt>
      <trkpt lat="46.22025" lon="6.27745">
        <ele>549.25</ele>
        <time>2021-10-13T13:45:09Z</time>
      </trkpt>
      <trkpt lat="46.2201" lon="6.27735">
        <ele>549.25</ele>
        <time>2021-10-13T13:45:16Z</time>
      </trkpt>
      <trkpt lat="46.21996" lon="6.27758">
        <ele>549.25</ele>
        <time>2021-10-13T13:45:35Z</time>
      </trkpt>
      <trkpt lat="46.21982" lon="6.27776">
        <ele>549.25</ele>
        <time>2021-10-13T13:45:42Z</time>
      </trkpt>
      <trkpt lat="46.21967" lon="6.27799">
        <ele>549.25</ele>
        <time>2021-10-13T13:45:48Z</time>
      </trkpt>
      <trkpt lat="46.21956" lon="6.27824">
        <ele>549.25</ele>
        <time>2021-10-13T13:45:53Z</time>
      </trkpt>
      <trkpt lat="46.21943" lon="6.27849">
        <ele>549.25</ele>
        <time>2021-10-13T13:46:01Z</time>
      </trkpt>
      <trkpt lat="46.21932" lon="6.27875">
        <ele>549.25</ele>
        <time>2021-10-13T13:46:09Z</time>
      </trkpt>
      <trkpt lat="46.21918" lon="6.27901">
        <ele>549.25</ele>
        <time>2021-10-13T13:46:16Z</time>
      </trkpt>
      <trkpt lat="46.21905" lon="6.27926">
        <ele>549.25</ele>
        <time>2021-10-13T13:46:26Z</time>
      </trkpt>
      <trkpt lat="46.21918" lon="6.27945">
        <ele>549.25</ele>
        <time>2021-10-13T13:46:47Z</time>
      </trkpt>
      <trkpt lat="46.21935" lon="6.27964">
        <ele>549.25</ele>
        <time>2021-10-13T13:46:53Z</time>
      </trkpt>
      <trkpt lat="46.21951" lon="6.2798">
        <ele>549.25</ele>
        <time>2021-10-13T13:46:58Z</time>
      </trkpt>
      <trkpt lat="46.21969" lon="6.27998">
        <ele>549.25</ele>
        <time>2021-10-13T13:47:04Z</time>
      </trkpt>
      <trkpt lat="46.21985" lon="6.28013">
        <ele>549.25</ele>
        <time>2021-10-13T13:47:10Z</time>
      </trkpt>
      <trkpt lat="46.22002" lon="6.28028">
        <ele>549.25</ele>
        <time>2021-10-13T13:47:18Z</time>
      </trkpt>
      <trkpt lat="46.22019" lon="6.28038">
        <ele>549.25</ele>
        <time>2021-10-13T13:47:24Z</time>
      </trkpt>
      <trkpt lat="46.22039" lon="6.2805">
        <ele>549.25</ele>
        <time>2021-10-13T13:47:29Z</time>
      </trkpt>
      <trkpt lat="46.22057" lon="6.28066">
        <ele>549.25</ele>
        <time>2021-10-13T13:47:34Z</time>
      </trkpt>
      <trkpt lat="46.22069" lon="6.28091">
        <ele>549.25</ele>
        <time>2021-10-13T13:47:41Z</time>
      </trkpt>
      <trkpt lat="46.22078" lon="6.2812">
        <ele>549.25</ele>
        <time>2021-10-13T13:47:47Z</time>
      </trkpt>
      <trkpt lat="46.22085" lon="6.28145">
        <ele>549.25</ele>
        <time>2021-10-13T13:47:51Z</time>
      </trkpt>
      <trkpt lat="46.22092" lon="6.2817">
        <ele>553.1</ele>
        <time>2021-10-13T13:47:55Z</time>
      </trkpt>
      <trkpt lat="46.22103" lon="6.28193">
        <ele>553.27</ele>
        <time>2021-10-13T13:48:01Z</time>
      </trkpt>
      <trkpt lat="46.22115" lon="6.28215">
        <ele>553.47</ele>
        <time>2021-10-13T13:48:06Z</time>
      </trkpt>
      <trkpt lat="46.22127" lon="6.28237">
        <ele>553.89</ele>
        <time>2021-10-13T13:48:11Z</time>
      </trkpt>
      <trkpt lat="46.2214" lon="6.28255">
        <ele>554.14</ele>
        <time>2021-10-13T13:48:16Z</time>
      </trkpt>
      <trkpt lat="46.22156" lon="6.28266">
        <ele>554.42</ele>
        <time>2021-10-13T13:48:21Z</time>
      </trkpt>
      <trkpt lat="46.22174" lon="6.2828">
        <ele>554.6</ele>
        <time>2021-10-13T13:48:26Z</time>
      </trkpt>
      <trkpt lat="46.22191" lon="6.28301">
        <ele>554.7</ele>
        <time>2021-10-13T13:48:31Z</time>
      </trkpt>
      <trkpt lat="46.22207" lon="6.28319">
        <ele>554.71</ele>
        <time>2021-10-13T13:48:37Z</time>
      </trkpt>
      <trkpt lat="46.22222" lon="6.28338">
        <ele>554.67</ele>
        <time>2021-10-13T13:48:43Z</time>
      </trkpt>
      <trkpt lat="46.22237" lon="6.2836">
        <ele>554.98</ele>
        <time>2021-10-13T13:48:48Z</time>
      </trkpt>
      <trkpt lat="46.22249" lon="6.28386">
        <ele>555.16</ele>
        <time>2021-10-13T13:48:53Z</time>
      </trkpt>
      <trkpt lat="46.22261" lon="6.28412">
        <ele>555</ele>
        <time>2021-10-13T13:48:58Z</time>
      </trkpt>
      <trkpt lat="46.22272" lon="6.28436">
        <ele>555.13</ele>
        <time>2021-10-13T13:49:04Z</time>
      </trkpt>
      <trkpt lat="46.22285" lon="6.28457">
        <ele>555.2</ele>
        <time>2021-10-13T13:49:09Z</time>
      </trkpt>
      <trkpt lat="46.22301" lon="6.28469">
        <ele>555.42</ele>
        <time>2021-10-13T13:49:13Z</time>
      </trkpt>
      <trkpt lat="46.22319" lon="6.28478">
        <ele>555.48</ele>
        <time>2021-10-13T13:49:17Z</time>
      </trkpt>
      <trkpt lat="46.22336" lon="6.28488">
        <ele>555.33</ele>
        <time>2021-10-13T13:49:22Z</time>
      </trkpt>
      <trkpt lat="46.22355" lon="6.28493">
        <ele>555.27</ele>
        <time>2021-10-13T13:49:28Z</time>
      </trkpt>
      <trkpt lat="46.22376" lon="6.285">
        <ele>555.41</ele>
        <time>2021-10-13T13:49:33Z</time>
      </trkpt>
      <trkpt lat="46.22394" lon="6.28502">
        <ele>555.4</ele>
        <time>2021-10-13T13:49:37Z</time>
      </trkpt>
      <trkpt lat="46.22413" lon="6.28508">
        <ele>555.16</ele>
        <time>2021-10-13T13:49:42Z</time>
      </trkpt>
      <trkpt lat="46.22431" lon="6.28517">
        <ele>555.25</ele>
        <time>2021-10-13T13:49:46Z</time>
      </trkpt>
      <trkpt lat="46.22441" lon="6.28541">
        <ele>555.05</ele>
        <time>2021-10-13T13:49:51Z</time>
      </trkpt>
      <trkpt lat="46.22433" lon="6.28566">
        <ele>554.71</ele>
        <time>2021-10-13T13:49:56Z</time>
      </trkpt>
      <trkpt lat="46.22421" lon="6.28588">
        <ele>554.71</ele>
        <time>2021-10-13T13:50:01Z</time>
      </trkpt>
      <trkpt lat="46.22411" lon="6.28614">
        <ele>554.71</ele>
        <time>2021-10-13T13:50:07Z</time>
      </trkpt>
      <trkpt lat="46.22402" lon="6.28638">
        <ele>554.71</ele>
        <time>2021-10-13T13:50:13Z</time>
      </trkpt>
      <trkpt lat="46.22391" lon="6.28663">
        <ele>554.71</ele>
        <time>2021-10-13T13:50:20Z</time>
      </trkpt>
      <trkpt lat="46.22379" lon="6.28687">
        <ele>554.71</ele>
        <time>2021-10-13T13:50:28Z</time>
      </trkpt>
      <trkpt lat="46.22367" lon="6.28716">
        <ele>554.71</ele>
        <time>2021-10-13T13:50:35Z</time>
      </trkpt>
      <trkpt lat="46.22355" lon="6.2874">
        <ele>554.71</ele>
        <time>2021-10-13T13:50:40Z</time>
      </trkpt>
      <trkpt lat="46.22343" lon="6.28766">
        <ele>554.71</ele>
        <time>2021-10-13T13:50:47Z</time>
      </trkpt>
      <trkpt lat="46.22335" lon="6.28793">
        <ele>554.71</ele>
        <time>2021-10-13T13:50:53Z</time>
      </trkpt>
      <trkpt lat="46.22344" lon="6.28821">
        <ele>557.99</ele>
        <time>2021-10-13T13:50:59Z</time>
      </trkpt>
      <trkpt lat="46.22357" lon="6.28841">
        <ele>557.98</ele>
        <time>2021-10-13T13:51:04Z</time>
      </trkpt>
      <trkpt lat="46.2237" lon="6.2886">
        <ele>558.1</ele>
        <time>2021-10-13T13:51:09Z</time>
      </trkpt>
      <trkpt lat="46.22382" lon="6.28881">
        <ele>558.26</ele>
        <time>2021-10-13T13:51:14Z</time>
      </trkpt>
      <trkpt lat="46.22397" lon="6.28903">
        <ele>558.6</ele>
        <time>2021-10-13T13:51:21Z</time>
      </trkpt>
      <trkpt lat="46.2241" lon="6.28923">
        <ele>558.92</ele>
        <time>2021-10-13T13:51:27Z</time>
      </trkpt>
      <trkpt lat="46.22424" lon="6.28942">
        <ele>559.28</ele>
        <time>2021-10-13T13:51:32Z</time>
      </trkpt>
      <trkpt lat="46.22437" lon="6.28962">
        <ele>559.29</ele>
        <time>2021-10-13T13:51:38Z</time>
      </trkpt>
      <trkpt lat="46.22452" lon="6.28985">
        <ele>559.33</ele>
        <time>2021-10-13T13:51:44Z</time>
      </trkpt>
      <trkpt lat="46.22467" lon="6.29001">
        <ele>559.39</ele>
        <time>2021-10-13T13:51:51Z</time>
      </trkpt>
      <trkpt lat="46.22479" lon="6.2902">
        <ele>559.11</ele>
        <time>2021-10-13T13:51:59Z</time>
      </trkpt>
      <trkpt lat="46.22492" lon="6.29008">
        <ele>558.62</ele>
        <time>2021-10-13T13:52:23Z</time>
      </trkpt>
      <trkpt lat="46.22506" lon="6.28984">
        <ele>558.41</ele>
        <time>2021-10-13T13:52:28Z</time>
      </trkpt>
      <trkpt lat="46.22518" lon="6.28964">
        <ele>558.19</ele>
        <time>2021-10-13T13:52:32Z</time>
      </trkpt>
      <trkpt lat="46.22532" lon="6.28941">
        <ele>558.14</ele>
        <time>2021-10-13T13:52:38Z</time>
      </trkpt>
      <trkpt lat="46.22541" lon="6.28917">
        <ele>557.63</ele>
        <time>2021-10-13T13:52:46Z</time>
      </trkpt>
      <trkpt lat="46.22536" lon="6.28917">
        <ele>556.92</ele>
        <time>2021-10-13T13:52:55Z</time>
      </trkpt>
      <trkpt lat="46.22529" lon="6.28945">
        <ele>557.14</ele>
        <time>2021-10-13T13:53:02Z</time>
      </trkpt>
      <trkpt lat="46.22545" lon="6.28964">
        <ele>557.37</ele>
        <time>2021-10-13T13:53:22Z</time>
      </trkpt>
      <trkpt lat="46.2256" lon="6.28989">
        <ele>557.91</ele>
        <time>2021-10-13T13:53:30Z</time>
      </trkpt>
      <trkpt lat="46.22579" lon="6.29006">
        <ele>558.43</ele>
        <time>2021-10-13T13:53:35Z</time>
      </trkpt>
      <trkpt lat="46.22593" lon="6.29031">
        <ele>558.41</ele>
        <time>2021-10-13T13:53:40Z</time>
      </trkpt>
      <trkpt lat="46.22592" lon="6.29051">
        <ele>507.4</ele>
        <time>2021-10-13T13:53:46Z</time>
      </trkpt>
      <trkpt lat="46.22574" lon="6.29083">
        <ele>506.9</ele>
        <time>2021-10-13T13:53:51Z</time>
      </trkpt>
      <trkpt lat="46.22555" lon="6.29112">
        <ele>507</ele>
      </trkpt>
      <trkpt lat="46.22521" lon="6.2916">
        <ele>559.4</ele>
        <time>2021-10-13T13:54:13Z</time>
      </trkpt>
      <trkpt lat="46.22507" lon="6.29181">
        <ele>559.77</ele>
        <time>2021-10-13T13:54:19Z</time>
      </trkpt>
      <trkpt lat="46.22493" lon="6.292">
        <ele>559.77</ele>
        <time>2021-10-13T13:54:28Z</time>
      </trkpt>
      <trkpt lat="46.22483" lon="6.29221">
        <ele>559.96</ele>
        <time>2021-10-13T13:54:38Z</time>
      </trkpt>
      <trkpt lat="46.22493" lon="6.2924">
        <ele>560.09</ele>
        <time>2021-10-13T13:54:52Z</time>
      </trkpt>
      <trkpt lat="46.22507" lon="6.29259">
        <ele>560.37</ele>
        <time>2021-10-13T13:55:03Z</time>
      </trkpt>
      <trkpt lat="46.22518" lon="6.29283">
        <ele>560.47</ele>
        <time>2021-10-13T13:55:11Z</time>
      </trkpt>
      <trkpt lat="46.22532" lon="6.29289">
        <ele>560.32</ele>
        <time>2021-10-13T13:55:21Z</time>
      </trkpt>
      <trkpt lat="46.22548" lon="6.29268">
        <ele>559.81</ele>
        <time>2021-10-13T13:55:27Z</time>
      </trkpt>
      <trkpt lat="46.22565" lon="6.29247">
        <ele>559.68</ele>
        <time>2021-10-13T13:55:32Z</time>
      </trkpt>
      <trkpt lat="46.2258" lon="6.29228">
        <ele>559.59</ele>
        <time>2021-10-13T13:55:36Z</time>
      </trkpt>
      <trkpt lat="46.22592" lon="6.29208">
        <ele>559.05</ele>
        <time>2021-10-13T13:55:41Z</time>
      </trkpt>
      <trkpt lat="46.22608" lon="6.29221">
        <ele>559.07</ele>
        <time>2021-10-13T13:55:58Z</time>
      </trkpt>
      <trkpt lat="46.22627" lon="6.29238">
        <ele>559.24</ele>
        <time>2021-10-13T13:56:03Z</time>
      </trkpt>
      <trkpt lat="46.22644" lon="6.29253">
        <ele>559.28</ele>
        <time>2021-10-13T13:56:07Z</time>
      </trkpt>
      <trkpt lat="46.2266" lon="6.29269">
        <ele>559.22</ele>
        <time>2021-10-13T13:56:12Z</time>
      </trkpt>
      <trkpt lat="46.22677" lon="6.29284">
        <ele>559.2</ele>
        <time>2021-10-13T13:56:18Z</time>
      </trkpt>
      <trkpt lat="46.22695" lon="6.29297">
        <ele>559.23</ele>
        <time>2021-10-13T13:56:23Z</time>
      </trkpt>
      <trkpt lat="46.22713" lon="6.29311">
        <ele>559.13</ele>
        <time>2021-10-13T13:56:27Z</time>
      </trkpt>
      <trkpt lat="46.22731" lon="6.29326">
        <ele>558.89</ele>
        <time>2021-10-13T13:56:33Z</time>
      </trkpt>
      <trkpt lat="46.22752" lon="6.29347">
        <ele>558.83</ele>
        <time>2021-10-13T13:56:41Z</time>
      </trkpt>
      <trkpt lat="46.22776" lon="6.2936">
        <ele>558.88</ele>
        <time>2021-10-13T13:56:47Z</time>
      </trkpt>
      <trkpt lat="46.22796" lon="6.29382">
        <ele>558.9</ele>
        <time>2021-10-13T13:56:54Z</time>
      </trkpt>
      <trkpt lat="46.22816" lon="6.29397">
        <ele>558.92</ele>
        <time>2021-10-13T13:56:58Z</time>
      </trkpt>
      <trkpt lat="46.22838" lon="6.29418">
        <ele>558.96</ele>
        <time>2021-10-13T13:57:03Z</time>
      </trkpt>
      <trkpt lat="46.22859" lon="6.29435">
        <ele>558.96</ele>
        <time>2021-10-13T13:57:09Z</time>
      </trkpt>
      <trkpt lat="46.22882" lon="6.29453">
        <ele>558.96</ele>
        <time>2021-10-13T13:57:15Z</time>
      </trkpt>
      <trkpt lat="46.229" lon="6.2947">
        <ele>558.96</ele>
        <time>2021-10-13T13:57:19Z</time>
      </trkpt>
      <trkpt lat="46.22918" lon="6.29486">
        <ele>558.96</ele>
        <time>2021-10-13T13:57:23Z</time>
      </trkpt>
      <trkpt lat="46.22934" lon="6.295">
        <ele>558.96</ele>
        <time>2021-10-13T13:57:27Z</time>
      </trkpt>
      <trkpt lat="46.22951" lon="6.29519">
        <ele>558.96</ele>
        <time>2021-10-13T13:57:33Z</time>
      </trkpt>
      <trkpt lat="46.22971" lon="6.29538">
        <ele>558.96</ele>
        <time>2021-10-13T13:57:40Z</time>
      </trkpt>
      <trkpt lat="46.22991" lon="6.29554">
        <ele>558.96</ele>
        <time>2021-10-13T13:57:45Z</time>
      </trkpt>
      <trkpt lat="46.23012" lon="6.29569">
        <ele>558.96</ele>
        <time>2021-10-13T13:57:49Z</time>
      </trkpt>
      <trkpt lat="46.23031" lon="6.29586">
        <ele>558.96</ele>
        <time>2021-10-13T13:57:54Z</time>
      </trkpt>
      <trkpt lat="46.23053" lon="6.29607">
        <ele>558.96</ele>
        <time>2021-10-13T13:58:01Z</time>
      </trkpt>
      <trkpt lat="46.23072" lon="6.29627">
        <ele>558.96</ele>
        <time>2021-10-13T13:58:06Z</time>
      </trkpt>
      <trkpt lat="46.23094" lon="6.29645">
        <ele>558.96</ele>
        <time>2021-10-13T13:58:11Z</time>
      </trkpt>
      <trkpt lat="46.23115" lon="6.29661">
        <ele>558.96</ele>
        <time>2021-10-13T13:58:15Z</time>
      </trkpt>
      <trkpt lat="46.23138" lon="6.29679">
        <ele>558.96</ele>
        <time>2021-10-13T13:58:20Z</time>
      </trkpt>
      <trkpt lat="46.23161" lon="6.29699">
        <ele>558.96</ele>
        <time>2021-10-13T13:58:27Z</time>
      </trkpt>
      <trkpt lat="46.23183" lon="6.29716">
        <ele>558.96</ele>
        <time>2021-10-13T13:58:33Z</time>
      </trkpt>
      <trkpt lat="46.23202" lon="6.29732">
        <ele>558.96</ele>
        <time>2021-10-13T13:58:38Z</time>
      </trkpt>
      <trkpt lat="46.23223" lon="6.29752">
        <ele>558.96</ele>
        <time>2021-10-13T13:58:43Z</time>
      </trkpt>
      <trkpt lat="46.23244" lon="6.29767">
        <ele>558.96</ele>
        <time>2021-10-13T13:58:48Z</time>
      </trkpt>
      <trkpt lat="46.23263" lon="6.29783">
        <ele>558.96</ele>
        <time>2021-10-13T13:58:55Z</time>
      </trkpt>
      <trkpt lat="46.23284" lon="6.29802">
        <ele>558.96</ele>
        <time>2021-10-13T13:59:04Z</time>
      </trkpt>
      <trkpt lat="46.23305" lon="6.29822">
        <ele>558.96</ele>
        <time>2021-10-13T13:59:10Z</time>
      </trkpt>
      <trkpt lat="46.23326" lon="6.29838">
        <ele>558.96</ele>
        <time>2021-10-13T13:59:14Z</time>
      </trkpt>
      <trkpt lat="46.23346" lon="6.29854">
        <ele>558.96</ele>
        <time>2021-10-13T13:59:19Z</time>
      </trkpt>
      <trkpt lat="46.23366" lon="6.29871">
        <ele>558.96</ele>
        <time>2021-10-13T13:59:25Z</time>
      </trkpt>
      <trkpt lat="46.23389" lon="6.29889">
        <ele>558.96</ele>
        <time>2021-10-13T13:59:31Z</time>
      </trkpt>
      <trkpt lat="46.23412" lon="6.29908">
        <ele>558.96</ele>
        <time>2021-10-13T13:59:36Z</time>
      </trkpt>
      <trkpt lat="46.2343" lon="6.29922">
        <ele>558.96</ele>
        <time>2021-10-13T13:59:40Z</time>
      </trkpt>
      <trkpt lat="46.2345" lon="6.29939">
        <ele>558.96</ele>
        <time>2021-10-13T13:59:45Z</time>
      </trkpt>
      <trkpt lat="46.23471" lon="6.29959">
        <ele>558.96</ele>
        <time>2021-10-13T13:59:52Z</time>
      </trkpt>
      <trkpt lat="46.2349" lon="6.29975">
        <ele>558.96</ele>
        <time>2021-10-13T13:59:57Z</time>
      </trkpt>
      <trkpt lat="46.23509" lon="6.29996">
        <ele>558.96</ele>
        <time>2021-10-13T14:00:02Z</time>
      </trkpt>
      <trkpt lat="46.23529" lon="6.30014">
        <ele>558.96</ele>
        <time>2021-10-13T14:00:07Z</time>
      </trkpt>
      <trkpt lat="46.23548" lon="6.30032">
        <ele>558.96</ele>
        <time>2021-10-13T14:00:14Z</time>
      </trkpt>
      <trkpt lat="46.2357" lon="6.30049">
        <ele>558.96</ele>
        <time>2021-10-13T14:00:20Z</time>
      </trkpt>
      <trkpt lat="46.23589" lon="6.30065">
        <ele>558.96</ele>
        <time>2021-10-13T14:00:26Z</time>
      </trkpt>
      <trkpt lat="46.23611" lon="6.30085">
        <ele>558.96</ele>
        <time>2021-10-13T14:00:32Z</time>
      </trkpt>
      <trkpt lat="46.23629" lon="6.30101">
        <ele>558.96</ele>
        <time>2021-10-13T14:00:37Z</time>
      </trkpt>
      <trkpt lat="46.2365" lon="6.30117">
        <ele>558.96</ele>
        <time>2021-10-13T14:00:44Z</time>
      </trkpt>
      <trkpt lat="46.23669" lon="6.30135">
        <ele>558.96</ele>
        <time>2021-10-13T14:00:51Z</time>
      </trkpt>
      <trkpt lat="46.23688" lon="6.30151">
        <ele>558.96</ele>
        <time>2021-10-13T14:00:57Z</time>
      </trkpt>
      <trkpt lat="46.23709" lon="6.30171">
        <ele>558.96</ele>
        <time>2021-10-13T14:01:03Z</time>
      </trkpt>
      <trkpt lat="46.23728" lon="6.30189">
        <ele>558.96</ele>
        <time>2021-10-13T14:01:10Z</time>
      </trkpt>
      <trkpt lat="46.23749" lon="6.30207">
        <ele>558.96</ele>
        <time>2021-10-13T14:01:34Z</time>
      </trkpt>
      <trkpt lat="46.23766" lon="6.30221">
        <ele>558.96</ele>
        <time>2021-10-13T14:01:40Z</time>
      </trkpt>
      <trkpt lat="46.23785" lon="6.30239">
        <ele>558.96</ele>
        <time>2021-10-13T14:01:47Z</time>
      </trkpt>
      <trkpt lat="46.23805" lon="6.30255">
        <ele>558.96</ele>
        <time>2021-10-13T14:01:53Z</time>
      </trkpt>
      <trkpt lat="46.23822" lon="6.30273">
        <ele>558.96</ele>
        <time>2021-10-13T14:01:59Z</time>
      </trkpt>
      <trkpt lat="46.2384" lon="6.30294">
        <ele>558.96</ele>
        <time>2021-10-13T14:02:05Z</time>
      </trkpt>
      <trkpt lat="46.23855" lon="6.30313">
        <ele>562.01</ele>
        <time>2021-10-13T14:02:10Z</time>
      </trkpt>
      <trkpt lat="46.23869" lon="6.30331">
        <ele>562.1</ele>
        <time>2021-10-13T14:02:15Z</time>
      </trkpt>
      <trkpt lat="46.23885" lon="6.30351">
        <ele>562.78</ele>
        <time>2021-10-13T14:02:21Z</time>
      </trkpt>
      <trkpt lat="46.239" lon="6.30368">
        <ele>563.07</ele>
        <time>2021-10-13T14:02:26Z</time>
      </trkpt>
      <trkpt lat="46.23915" lon="6.30385">
        <ele>563.16</ele>
        <time>2021-10-13T14:02:31Z</time>
      </trkpt>
      <trkpt lat="46.2393" lon="6.30402">
        <ele>563.56</ele>
        <time>2021-10-13T14:02:37Z</time>
      </trkpt>
      <trkpt lat="46.23946" lon="6.30417">
        <ele>563.2</ele>
        <time>2021-10-13T14:02:43Z</time>
      </trkpt>
      <trkpt lat="46.23964" lon="6.30435">
        <ele>563.37</ele>
        <time>2021-10-13T14:02:49Z</time>
      </trkpt>
      <trkpt lat="46.23981" lon="6.30452">
        <ele>563.79</ele>
        <time>2021-10-13T14:02:55Z</time>
      </trkpt>
      <trkpt lat="46.23998" lon="6.30466">
        <ele>563.84</ele>
        <time>2021-10-13T14:03:01Z</time>
      </trkpt>
      <trkpt lat="46.24015" lon="6.30482">
        <ele>563.88</ele>
        <time>2021-10-13T14:03:07Z</time>
      </trkpt>
      <trkpt lat="46.24033" lon="6.30496">
        <ele>563.65</ele>
        <time>2021-10-13T14:03:14Z</time>
      </trkpt>
      <trkpt lat="46.24051" lon="6.30512">
        <ele>563.75</ele>
        <time>2021-10-13T14:03:20Z</time>
      </trkpt>
      <trkpt lat="46.24067" lon="6.30527">
        <ele>564.01</ele>
        <time>2021-10-13T14:03:25Z</time>
      </trkpt>
      <trkpt lat="46.24083" lon="6.30541">
        <ele>564.47</ele>
        <time>2021-10-13T14:03:31Z</time>
      </trkpt>
      <trkpt lat="46.241" lon="6.30558">
        <ele>564.69</ele>
        <time>2021-10-13T14:03:37Z</time>
      </trkpt>
      <trkpt lat="46.24116" lon="6.30571">
        <ele>565.33</ele>
        <time>2021-10-13T14:03:43Z</time>
      </trkpt>
      <trkpt lat="46.24131" lon="6.30585">
        <ele>565.15</ele>
        <time>2021-10-13T14:03:51Z</time>
      </trkpt>
      <trkpt lat="46.24147" lon="6.30601">
        <ele>564.86</ele>
        <time>2021-10-13T14:03:59Z</time>
      </trkpt>
      <trkpt lat="46.24169" lon="6.30606">
        <ele>564.73</ele>
        <time>2021-10-13T14:04:06Z</time>
      </trkpt>
      <trkpt lat="46.24187" lon="6.30613">
        <ele>564.81</ele>
        <time>2021-10-13T14:04:13Z</time>
      </trkpt>
      <trkpt lat="46.24201" lon="6.30625">
        <ele>564.51</ele>
        <time>2021-10-13T14:04:21Z</time>
      </trkpt>
      <trkpt lat="46.24193" lon="6.30652">
        <ele>564.51</ele>
        <time>2021-10-13T14:04:27Z</time>
      </trkpt>
      <trkpt lat="46.24184" lon="6.30677">
        <ele>564.88</ele>
        <time>2021-10-13T14:04:32Z</time>
      </trkpt>
      <trkpt lat="46.24175" lon="6.307">
        <ele>565.25</ele>
        <time>2021-10-13T14:04:39Z</time>
      </trkpt>
      <trkpt lat="46.24183" lon="6.30725">
        <ele>565.8</ele>
        <time>2021-10-13T14:04:46Z</time>
      </trkpt>
      <trkpt lat="46.242" lon="6.30741">
        <ele>566.14</ele>
        <time>2021-10-13T14:04:52Z</time>
      </trkpt>
      <trkpt lat="46.24217" lon="6.30756">
        <ele>566.58</ele>
        <time>2021-10-13T14:04:58Z</time>
      </trkpt>
      <trkpt lat="46.24236" lon="6.30769">
        <ele>566.94</ele>
        <time>2021-10-13T14:05:03Z</time>
      </trkpt>
      <trkpt lat="46.24254" lon="6.30756">
        <ele>566.71</ele>
        <time>2021-10-13T14:05:09Z</time>
      </trkpt>
      <trkpt lat="46.24273" lon="6.3075">
        <ele>566.62</ele>
        <time>2021-10-13T14:05:14Z</time>
      </trkpt>
      <trkpt lat="46.24294" lon="6.30761">
        <ele>566.89</ele>
        <time>2021-10-13T14:05:19Z</time>
      </trkpt>
      <trkpt lat="46.2431" lon="6.30771">
        <ele>566.99</ele>
        <time>2021-10-13T14:05:24Z</time>
      </trkpt>
      <trkpt lat="46.24327" lon="6.30782">
        <ele>567.02</ele>
        <time>2021-10-13T14:05:30Z</time>
      </trkpt>
      <trkpt lat="46.24346" lon="6.3079">
        <ele>567.2</ele>
        <time>2021-10-13T14:05:36Z</time>
      </trkpt>
      <trkpt lat="46.24364" lon="6.30793">
        <ele>567.12</ele>
        <time>2021-10-13T14:05:41Z</time>
      </trkpt>
      <trkpt lat="46.24384" lon="6.30796">
        <ele>567.11</ele>
        <time>2021-10-13T14:05:46Z</time>
      </trkpt>
      <trkpt lat="46.24403" lon="6.30799">
        <ele>567.14</ele>
        <time>2021-10-13T14:05:51Z</time>
      </trkpt>
      <trkpt lat="46.2442" lon="6.30784">
        <ele>566.37</ele>
        <time>2021-10-13T14:05:57Z</time>
      </trkpt>
      <trkpt lat="46.24435" lon="6.30765">
        <ele>565.89</ele>
        <time>2021-10-13T14:06:02Z</time>
      </trkpt>
      <trkpt lat="46.24455" lon="6.30765">
        <ele>566.38</ele>
        <time>2021-10-13T14:06:07Z</time>
      </trkpt>
      <trkpt lat="46.24473" lon="6.30775">
        <ele>566.97</ele>
        <time>2021-10-13T14:06:12Z</time>
      </trkpt>
      <trkpt lat="46.24493" lon="6.30783">
        <ele>567.26</ele>
        <time>2021-10-13T14:06:17Z</time>
      </trkpt>
      <trkpt lat="46.24511" lon="6.30789">
        <ele>567.46</ele>
        <time>2021-10-13T14:06:21Z</time>
      </trkpt>
      <trkpt lat="46.24531" lon="6.30794">
        <ele>567.39</ele>
        <time>2021-10-13T14:06:26Z</time>
      </trkpt>
      <trkpt lat="46.2455" lon="6.30799">
        <ele>567.36</ele>
        <time>2021-10-13T14:06:31Z</time>
      </trkpt>
      <trkpt lat="46.24568" lon="6.30804">
        <ele>567.03</ele>
        <time>2021-10-13T14:06:35Z</time>
      </trkpt>
      <trkpt lat="46.24586" lon="6.30809">
        <ele>566.95</ele>
        <time>2021-10-13T14:06:39Z</time>
      </trkpt>
      <trkpt lat="46.24605" lon="6.30818">
        <ele>567.51</ele>
        <time>2021-10-13T14:06:45Z</time>
      </trkpt>
      <trkpt lat="46.24618" lon="6.3084">
        <ele>567.33</ele>
        <time>2021-10-13T14:06:50Z</time>
      </trkpt>
      <trkpt lat="46.24629" lon="6.3086">
        <ele>567.39</ele>
        <time>2021-10-13T14:06:54Z</time>
      </trkpt>
      <trkpt lat="46.24649" lon="6.30866">
        <ele>567.67</ele>
        <time>2021-10-13T14:06:59Z</time>
      </trkpt>
      <trkpt lat="46.24668" lon="6.30871">
        <ele>567.59</ele>
        <time>2021-10-13T14:07:05Z</time>
      </trkpt>
      <trkpt lat="46.24687" lon="6.30875">
        <ele>567.91</ele>
        <time>2021-10-13T14:07:10Z</time>
      </trkpt>
      <trkpt lat="46.24701" lon="6.30875">
        <ele>568.06</ele>
        <time>2021-10-13T14:07:54Z</time>
      </trkpt>
      <trkpt lat="46.24719" lon="6.30871">
        <ele>567.89</ele>
        <time>2021-10-13T14:08:02Z</time>
      </trkpt>
      <trkpt lat="46.24739" lon="6.30867">
        <ele>568.16</ele>
        <time>2021-10-13T14:08:09Z</time>
      </trkpt>
      <trkpt lat="46.24758" lon="6.30881">
        <ele>568.3</ele>
        <time>2021-10-13T14:08:50Z</time>
      </trkpt>
      <trkpt lat="46.2478" lon="6.30879">
        <ele>568.3</ele>
        <time>2021-10-13T14:08:58Z</time>
      </trkpt>
      <trkpt lat="46.24798" lon="6.30888">
        <ele>568.3</ele>
        <time>2021-10-13T14:09:03Z</time>
      </trkpt>
      <trkpt lat="46.24817" lon="6.30894">
        <ele>568.3</ele>
        <time>2021-10-13T14:09:10Z</time>
      </trkpt>
      <trkpt lat="46.24825" lon="6.30869">
        <ele>568.3</ele>
        <time>2021-10-13T14:09:16Z</time>
      </trkpt>
      <trkpt lat="46.2483" lon="6.30841">
        <ele>568.3</ele>
        <time>2021-10-13T14:09:21Z</time>
      </trkpt>
      <trkpt lat="46.24836" lon="6.30814">
        <ele>568.3</ele>
        <time>2021-10-13T14:09:26Z</time>
      </trkpt>
      <trkpt lat="46.24843" lon="6.30787">
        <ele>568.3</ele>
        <time>2021-10-13T14:09:33Z</time>
      </trkpt>
      <trkpt lat="46.24849" lon="6.30761">
        <ele>568.3</ele>
        <time>2021-10-13T14:09:39Z</time>
      </trkpt>
      <trkpt lat="46.24857" lon="6.30735">
        <ele>568.3</ele>
        <time>2021-10-13T14:09:45Z</time>
      </trkpt>
      <trkpt lat="46.24867" lon="6.3071">
        <ele>568.3</ele>
        <time>2021-10-13T14:09:52Z</time>
      </trkpt>
      <trkpt lat="46.24873" lon="6.30684">
        <ele>568.3</ele>
        <time>2021-10-13T14:09:58Z</time>
      </trkpt>
      <trkpt lat="46.2488" lon="6.30657">
        <ele>568.3</ele>
        <time>2021-10-13T14:10:04Z</time>
      </trkpt>
      <trkpt lat="46.24891" lon="6.30633">
        <ele>568.3</ele>
        <time>2021-10-13T14:10:13Z</time>
      </trkpt>
      <trkpt lat="46.249" lon="6.30607">
        <ele>559.89</ele>
        <time>2021-10-13T14:10:22Z</time>
      </trkpt>
      <trkpt lat="46.24909" lon="6.30581">
        <ele>558.95</ele>
        <time>2021-10-13T14:10:29Z</time>
      </trkpt>
      <trkpt lat="46.24916" lon="6.30554">
        <ele>557.91</ele>
        <time>2021-10-13T14:10:36Z</time>
      </trkpt>
      <trkpt lat="46.24922" lon="6.30521">
        <ele>556.91</ele>
        <time>2021-10-13T14:10:42Z</time>
      </trkpt>
      <trkpt lat="46.24929" lon="6.30496">
        <ele>556.02</ele>
        <time>2021-10-13T14:10:47Z</time>
      </trkpt>
      <trkpt lat="46.24936" lon="6.30471">
        <ele>554.8</ele>
        <time>2021-10-13T14:10:53Z</time>
      </trkpt>
      <trkpt lat="46.24944" lon="6.30444">
        <ele>553.52</ele>
        <time>2021-10-13T14:10:58Z</time>
      </trkpt>
      <trkpt lat="46.24952" lon="6.30419">
        <ele>551.83</ele>
        <time>2021-10-13T14:11:04Z</time>
      </trkpt>
      <trkpt lat="46.2497" lon="6.3041">
        <ele>549.89</ele>
        <time>2021-10-13T14:11:38Z</time>
      </trkpt>
      <trkpt lat="46.24987" lon="6.30424">
        <ele>549.68</ele>
        <time>2021-10-13T14:11:47Z</time>
      </trkpt>
      <trkpt lat="46.25007" lon="6.30441">
        <ele>550.04</ele>
        <time>2021-10-13T14:11:53Z</time>
      </trkpt>
      <trkpt lat="46.25026" lon="6.30457">
        <ele>550.28</ele>
        <time>2021-10-13T14:11:58Z</time>
      </trkpt>
      <trkpt lat="46.25044" lon="6.30472">
        <ele>550.33</ele>
        <time>2021-10-13T14:12:04Z</time>
      </trkpt>
      <trkpt lat="46.25062" lon="6.30487">
        <ele>550.43</ele>
        <time>2021-10-13T14:12:10Z</time>
      </trkpt>
      <trkpt lat="46.25081" lon="6.30504">
        <ele>550.55</ele>
        <time>2021-10-13T14:12:15Z</time>
      </trkpt>
      <trkpt lat="46.251" lon="6.30521">
        <ele>550.59</ele>
        <time>2021-10-13T14:12:21Z</time>
      </trkpt>
      <trkpt lat="46.25119" lon="6.30538">
        <ele>550.43</ele>
        <time>2021-10-13T14:12:28Z</time>
      </trkpt>
      <trkpt lat="46.2514" lon="6.30553">
        <ele>550.45</ele>
        <time>2021-10-13T14:12:35Z</time>
      </trkpt>
      <trkpt lat="46.25164" lon="6.30552">
        <ele>550.35</ele>
        <time>2021-10-13T14:12:40Z</time>
      </trkpt>
      <trkpt lat="46.25181" lon="6.3054">
        <ele>550.24</ele>
        <time>2021-10-13T14:12:44Z</time>
      </trkpt>
      <trkpt lat="46.25196" lon="6.30519">
        <ele>550.03</ele>
        <time>2021-10-13T14:12:48Z</time>
      </trkpt>
      <trkpt lat="46.25208" lon="6.30492">
        <ele>549.62</ele>
        <time>2021-10-13T14:12:52Z</time>
      </trkpt>
      <trkpt lat="46.25217" lon="6.30461">
        <ele>548.94</ele>
        <time>2021-10-13T14:12:56Z</time>
      </trkpt>
      <trkpt lat="46.25225" lon="6.30431">
        <ele>548.15</ele>
        <time>2021-10-13T14:13:00Z</time>
      </trkpt>
      <trkpt lat="46.25233" lon="6.30399">
        <ele>547.4</ele>
        <time>2021-10-13T14:13:04Z</time>
      </trkpt>
      <trkpt lat="46.2524" lon="6.30369">
        <ele>546.66</ele>
        <time>2021-10-13T14:13:08Z</time>
      </trkpt>
      <trkpt lat="46.25249" lon="6.30341">
        <ele>546.07</ele>
        <time>2021-10-13T14:13:12Z</time>
      </trkpt>
      <trkpt lat="46.2526" lon="6.30312">
        <ele>545.45</ele>
        <time>2021-10-13T14:13:16Z</time>
      </trkpt>
      <trkpt lat="46.25271" lon="6.30282">
        <ele>544.68</ele>
        <time>2021-10-13T14:13:20Z</time>
      </trkpt>
      <trkpt lat="46.25283" lon="6.30254">
        <ele>543.59</ele>
        <time>2021-10-13T14:13:24Z</time>
      </trkpt>
      <trkpt lat="46.25294" lon="6.30233">
        <ele>542.55</ele>
        <time>2021-10-13T14:13:28Z</time>
      </trkpt>
      <trkpt lat="46.25305" lon="6.30212">
        <ele>541.8</ele>
        <time>2021-10-13T14:13:32Z</time>
      </trkpt>
      <trkpt lat="46.2532" lon="6.30188">
        <ele>540.95</ele>
        <time>2021-10-13T14:13:37Z</time>
      </trkpt>
      <trkpt lat="46.25331" lon="6.30163">
        <ele>540.44</ele>
        <time>2021-10-13T14:13:42Z</time>
      </trkpt>
      <trkpt lat="46.25342" lon="6.30139">
        <ele>539.98</ele>
        <time>2021-10-13T14:13:47Z</time>
      </trkpt>
      <trkpt lat="46.25356" lon="6.30115">
        <ele>539.64</ele>
        <time>2021-10-13T14:13:51Z</time>
      </trkpt>
      <trkpt lat="46.25369" lon="6.30088">
        <ele>539.57</ele>
        <time>2021-10-13T14:13:55Z</time>
      </trkpt>
      <trkpt lat="46.25382" lon="6.30063">
        <ele>539.23</ele>
        <time>2021-10-13T14:13:59Z</time>
      </trkpt>
      <trkpt lat="46.25395" lon="6.30039">
        <ele>538.56</ele>
        <time>2021-10-13T14:14:03Z</time>
      </trkpt>
      <trkpt lat="46.25407" lon="6.30019">
        <ele>537.93</ele>
        <time>2021-10-13T14:14:07Z</time>
      </trkpt>
      <trkpt lat="46.25419" lon="6.29996">
        <ele>537.36</ele>
        <time>2021-10-13T14:14:12Z</time>
      </trkpt>
      <trkpt lat="46.25426" lon="6.29972">
        <ele>535.19</ele>
        <time>2021-10-13T14:14:36Z</time>
      </trkpt>
      <trkpt lat="46.25433" lon="6.29942">
        <ele>535.18</ele>
        <time>2021-10-13T14:14:42Z</time>
      </trkpt>
      <trkpt lat="46.25435" lon="6.29912">
        <ele>535.01</ele>
        <time>2021-10-13T14:14:46Z</time>
      </trkpt>
      <trkpt lat="46.25438" lon="6.29881">
        <ele>534.85</ele>
        <time>2021-10-13T14:14:50Z</time>
      </trkpt>
      <trkpt lat="46.25442" lon="6.29852">
        <ele>534.38</ele>
        <time>2021-10-13T14:14:54Z</time>
      </trkpt>
      <trkpt lat="46.25445" lon="6.29824">
        <ele>533.77</ele>
        <time>2021-10-13T14:14:58Z</time>
      </trkpt>
      <trkpt lat="46.25449" lon="6.29797">
        <ele>533.35</ele>
        <time>2021-10-13T14:15:02Z</time>
      </trkpt>
      <trkpt lat="46.25453" lon="6.29772">
        <ele>532.85</ele>
        <time>2021-10-13T14:15:06Z</time>
      </trkpt>
      <trkpt lat="46.25457" lon="6.29745">
        <ele>532.36</ele>
        <time>2021-10-13T14:15:10Z</time>
      </trkpt>
      <trkpt lat="46.2546" lon="6.29716">
        <ele>531.85</ele>
        <time>2021-10-13T14:15:14Z</time>
      </trkpt>
      <trkpt lat="46.25464" lon="6.29688">
        <ele>531.36</ele>
        <time>2021-10-13T14:15:18Z</time>
      </trkpt>
      <trkpt lat="46.25469" lon="6.29659">
        <ele>530.71</ele>
        <time>2021-10-13T14:15:22Z</time>
      </trkpt>
      <trkpt lat="46.25472" lon="6.2963">
        <ele>530.06</ele>
        <time>2021-10-13T14:15:26Z</time>
      </trkpt>
      <trkpt lat="46.25476" lon="6.296">
        <ele>529.35</ele>
        <time>2021-10-13T14:15:30Z</time>
      </trkpt>
      <trkpt lat="46.25482" lon="6.2957">
        <ele>528.64</ele>
        <time>2021-10-13T14:15:34Z</time>
      </trkpt>
      <trkpt lat="46.25489" lon="6.29539">
        <ele>527.85</ele>
        <time>2021-10-13T14:15:38Z</time>
      </trkpt>
      <trkpt lat="46.25497" lon="6.29511">
        <ele>526.65</ele>
        <time>2021-10-13T14:15:42Z</time>
      </trkpt>
      <trkpt lat="46.25509" lon="6.29488">
        <ele>525.61</ele>
        <time>2021-10-13T14:15:46Z</time>
      </trkpt>
      <trkpt lat="46.2552" lon="6.29463">
        <ele>524.19</ele>
        <time>2021-10-13T14:15:53Z</time>
      </trkpt>
      <trkpt lat="46.25526" lon="6.2943">
        <ele>523.47</ele>
        <time>2021-10-13T14:15:58Z</time>
      </trkpt>
      <trkpt lat="46.25537" lon="6.294">
        <ele>523.17</ele>
        <time>2021-10-13T14:16:02Z</time>
      </trkpt>
      <trkpt lat="46.25549" lon="6.29375">
        <ele>522.88</ele>
        <time>2021-10-13T14:16:06Z</time>
      </trkpt>
      <trkpt lat="46.2556" lon="6.29346">
        <ele>522.59</ele>
        <time>2021-10-13T14:16:11Z</time>
      </trkpt>
      <trkpt lat="46.25566" lon="6.2932">
        <ele>522.41</ele>
        <time>2021-10-13T14:16:16Z</time>
      </trkpt>
      <trkpt lat="46.25565" lon="6.2929">
        <ele>522.1</ele>
        <time>2021-10-13T14:16:21Z</time>
      </trkpt>
      <trkpt lat="46.25552" lon="6.29263">
        <ele>521.76</ele>
        <time>2021-10-13T14:16:26Z</time>
      </trkpt>
      <trkpt lat="46.25561" lon="6.29245">
        <ele>521.45</ele>
        <time>2021-10-13T14:16:35Z</time>
      </trkpt>
      <trkpt lat="46.25584" lon="6.29243">
        <ele>521.33</ele>
        <time>2021-10-13T14:16:42Z</time>
      </trkpt>
      <trkpt lat="46.25606" lon="6.29245">
        <ele>521.01</ele>
        <time>2021-10-13T14:16:49Z</time>
      </trkpt>
      <trkpt lat="46.25631" lon="6.29251">
        <ele>521</ele>
        <time>2021-10-13T14:17:19Z</time>
      </trkpt>
      <trkpt lat="46.25655" lon="6.29261">
        <ele>520.81</ele>
        <time>2021-10-13T14:17:25Z</time>
      </trkpt>
      <trkpt lat="46.25678" lon="6.29274">
        <ele>520.42</ele>
        <time>2021-10-13T14:17:30Z</time>
      </trkpt>
      <trkpt lat="46.257" lon="6.29288">
        <ele>520.33</ele>
        <time>2021-10-13T14:17:34Z</time>
      </trkpt>
      <trkpt lat="46.25719" lon="6.29297">
        <ele>520.21</ele>
        <time>2021-10-13T14:17:37Z</time>
      </trkpt>
      <trkpt lat="46.2574" lon="6.29309">
        <ele>519.93</ele>
        <time>2021-10-13T14:17:41Z</time>
      </trkpt>
      <trkpt lat="46.25758" lon="6.29318">
        <ele>519.56</ele>
        <time>2021-10-13T14:17:46Z</time>
      </trkpt>
      <trkpt lat="46.25771" lon="6.29291">
        <ele>519.29</ele>
        <time>2021-10-13T14:17:52Z</time>
      </trkpt>
      <trkpt lat="46.25786" lon="6.29273">
        <ele>519.18</ele>
        <time>2021-10-13T14:17:56Z</time>
      </trkpt>
      <trkpt lat="46.25808" lon="6.29254">
        <ele>519.18</ele>
        <time>2021-10-13T14:18:00Z</time>
      </trkpt>
      <trkpt lat="46.25826" lon="6.29238">
        <ele>518.94</ele>
        <time>2021-10-13T14:18:04Z</time>
      </trkpt>
      <trkpt lat="46.25843" lon="6.29219">
        <ele>518.61</ele>
        <time>2021-10-13T14:18:09Z</time>
      </trkpt>
      <trkpt lat="46.25856" lon="6.29198">
        <ele>518.55</ele>
        <time>2021-10-13T14:18:15Z</time>
      </trkpt>
      <trkpt lat="46.25863" lon="6.29171">
        <ele>518.45</ele>
        <time>2021-10-13T14:18:20Z</time>
      </trkpt>
      <trkpt lat="46.25867" lon="6.29142">
        <ele>518.45</ele>
        <time>2021-10-13T14:18:24Z</time>
      </trkpt>
      <trkpt lat="46.25872" lon="6.29112">
        <ele>518.49</ele>
        <time>2021-10-13T14:18:28Z</time>
      </trkpt>
      <trkpt lat="46.25881" lon="6.29086">
        <ele>518.24</ele>
        <time>2021-10-13T14:18:33Z</time>
      </trkpt>
      <trkpt lat="46.25894" lon="6.29064">
        <ele>517.9</ele>
        <time>2021-10-13T14:18:39Z</time>
      </trkpt>
      <trkpt lat="46.25909" lon="6.29042">
        <ele>517.85</ele>
        <time>2021-10-13T14:18:43Z</time>
      </trkpt>
      <trkpt lat="46.25923" lon="6.29017">
        <ele>517.66</ele>
        <time>2021-10-13T14:18:47Z</time>
      </trkpt>
      <trkpt lat="46.25928" lon="6.29007">
        <ele>515.12</ele>
        <time>2021-10-13T14:19:08Z</time>
      </trkpt>
      <trkpt lat="46.25943" lon="6.28991">
        <ele>515.03</ele>
        <time>2021-10-13T14:19:34Z</time>
      </trkpt>
      <trkpt lat="46.25957" lon="6.28968">
        <ele>514.76</ele>
        <time>2021-10-13T14:19:59Z</time>
      </trkpt>
      <trkpt lat="46.25967" lon="6.28947">
        <ele>514.88</ele>
        <time>2021-10-13T14:20:08Z</time>
      </trkpt>
      <trkpt lat="46.25953" lon="6.28926">
        <ele>515.11</ele>
        <time>2021-10-13T14:20:43Z</time>
      </trkpt>
      <trkpt lat="46.2597" lon="6.28899">
        <ele>515.11</ele>
        <time>2021-10-13T14:21:05Z</time>
      </trkpt>
      <trkpt lat="46.25983" lon="6.28879">
        <ele>515.11</ele>
        <time>2021-10-13T14:21:11Z</time>
      </trkpt>
      <trkpt lat="46.26" lon="6.28872">
        <ele>515.11</ele>
        <time>2021-10-13T14:21:18Z</time>
      </trkpt>
      <trkpt lat="46.25999" lon="6.28843">
        <ele>515.11</ele>
        <time>2021-10-13T14:21:26Z</time>
      </trkpt>
      <trkpt lat="46.25987" lon="6.28814">
        <ele>515.11</ele>
        <time>2021-10-13T14:21:33Z</time>
      </trkpt>
      <trkpt lat="46.25977" lon="6.28788">
        <ele>515.11</ele>
        <time>2021-10-13T14:21:40Z</time>
      </trkpt>
      <trkpt lat="46.25962" lon="6.28762">
        <ele>515.11</ele>
        <time>2021-10-13T14:21:47Z</time>
      </trkpt>
      <trkpt lat="46.25946" lon="6.28733">
        <ele>515.11</ele>
        <time>2021-10-13T14:21:55Z</time>
      </trkpt>
      <trkpt lat="46.25931" lon="6.28705">
        <ele>515.11</ele>
        <time>2021-10-13T14:22:05Z</time>
      </trkpt>
      <trkpt lat="46.25912" lon="6.28684">
        <ele>515.11</ele>
        <time>2021-10-13T14:22:11Z</time>
      </trkpt>
      <trkpt lat="46.25895" lon="6.28664">
        <ele>515.11</ele>
        <time>2021-10-13T14:22:16Z</time>
      </trkpt>
      <trkpt lat="46.25874" lon="6.2864">
        <ele>515.11</ele>
        <time>2021-10-13T14:22:23Z</time>
      </trkpt>
      <trkpt lat="46.25854" lon="6.28622">
        <ele>517.64</ele>
        <time>2021-10-13T14:22:30Z</time>
      </trkpt>
      <trkpt lat="46.25846" lon="6.28592">
        <ele>517.75</ele>
        <time>2021-10-13T14:22:36Z</time>
      </trkpt>
      <trkpt lat="46.2585" lon="6.28559">
        <ele>518.12</ele>
        <time>2021-10-13T14:22:42Z</time>
      </trkpt>
      <trkpt lat="46.25841" lon="6.28528">
        <ele>518.29</ele>
        <time>2021-10-13T14:22:51Z</time>
      </trkpt>
      <trkpt lat="46.25824" lon="6.28503">
        <ele>518.37</ele>
        <time>2021-10-13T14:22:58Z</time>
      </trkpt>
      <trkpt lat="46.25806" lon="6.28479">
        <ele>518.38</ele>
        <time>2021-10-13T14:23:03Z</time>
      </trkpt>
      <trkpt lat="46.25794" lon="6.28453">
        <ele>518.16</ele>
        <time>2021-10-13T14:23:08Z</time>
      </trkpt>
      <trkpt lat="46.25783" lon="6.28424">
        <ele>518.03</ele>
        <time>2021-10-13T14:23:15Z</time>
      </trkpt>
      <trkpt lat="46.25772" lon="6.28392">
        <ele>517.9</ele>
        <time>2021-10-13T14:23:20Z</time>
      </trkpt>
      <trkpt lat="46.25768" lon="6.28359">
        <ele>517.86</ele>
        <time>2021-10-13T14:23:25Z</time>
      </trkpt>
      <trkpt lat="46.25761" lon="6.2833">
        <ele>517.68</ele>
        <time>2021-10-13T14:23:31Z</time>
      </trkpt>
      <trkpt lat="46.25749" lon="6.28299">
        <ele>517.68</ele>
        <time>2021-10-13T14:23:39Z</time>
      </trkpt>
      <trkpt lat="46.25741" lon="6.28269">
        <ele>517.68</ele>
        <time>2021-10-13T14:23:45Z</time>
      </trkpt>
      <trkpt lat="46.25737" lon="6.28235">
        <ele>517.68</ele>
        <time>2021-10-13T14:23:50Z</time>
      </trkpt>
      <trkpt lat="46.25728" lon="6.28212">
        <ele>517.68</ele>
        <time>2021-10-13T14:23:54Z</time>
      </trkpt>
      <trkpt lat="46.25719" lon="6.2819">
        <ele>517.68</ele>
        <time>2021-10-13T14:24:00Z</time>
      </trkpt>
      <trkpt lat="46.25735" lon="6.28161">
        <ele>517.68</ele>
        <time>2021-10-13T14:24:06Z</time>
      </trkpt>
      <trkpt lat="46.25749" lon="6.28137">
        <ele>517.68</ele>
        <time>2021-10-13T14:24:10Z</time>
      </trkpt>
      <trkpt lat="46.25757" lon="6.28109">
        <ele>517.68</ele>
        <time>2021-10-13T14:24:14Z</time>
      </trkpt>
      <trkpt lat="46.25762" lon="6.2808">
        <ele>517.68</ele>
        <time>2021-10-13T14:24:19Z</time>
      </trkpt>
      <trkpt lat="46.25773" lon="6.28052">
        <ele>517.68</ele>
        <time>2021-10-13T14:24:26Z</time>
      </trkpt>
      <trkpt lat="46.25785" lon="6.28024">
        <ele>517.68</ele>
        <time>2021-10-13T14:24:32Z</time>
      </trkpt>
      <trkpt lat="46.25797" lon="6.28">
        <ele>517.68</ele>
        <time>2021-10-13T14:24:37Z</time>
      </trkpt>
      <trkpt lat="46.25811" lon="6.27974">
        <ele>517.68</ele>
        <time>2021-10-13T14:24:44Z</time>
      </trkpt>
      <trkpt lat="46.25826" lon="6.27952">
        <ele>517.68</ele>
        <time>2021-10-13T14:24:51Z</time>
      </trkpt>
      <trkpt lat="46.25845" lon="6.27926">
        <ele>517.68</ele>
        <time>2021-10-13T14:24:56Z</time>
      </trkpt>
      <trkpt lat="46.25863" lon="6.27905">
        <ele>517.68</ele>
        <time>2021-10-13T14:25:00Z</time>
      </trkpt>
      <trkpt lat="46.2588" lon="6.2788">
        <ele>517.68</ele>
        <time>2021-10-13T14:25:05Z</time>
      </trkpt>
      <trkpt lat="46.25895" lon="6.27855">
        <ele>517.68</ele>
        <time>2021-10-13T14:25:11Z</time>
      </trkpt>
      <trkpt lat="46.25908" lon="6.2783">
        <ele>517.68</ele>
        <time>2021-10-13T14:25:18Z</time>
      </trkpt>
      <trkpt lat="46.25921" lon="6.27804">
        <ele>517.68</ele>
        <time>2021-10-13T14:25:24Z</time>
      </trkpt>
      <trkpt lat="46.25932" lon="6.27773">
        <ele>512.45</ele>
        <time>2021-10-13T14:25:29Z</time>
      </trkpt>
      <trkpt lat="46.25942" lon="6.27749">
        <ele>513.18</ele>
        <time>2021-10-13T14:25:33Z</time>
      </trkpt>
      <trkpt lat="46.25953" lon="6.27722">
        <ele>513.08</ele>
        <time>2021-10-13T14:25:38Z</time>
      </trkpt>
      <trkpt lat="46.25961" lon="6.27696">
        <ele>512.53</ele>
        <time>2021-10-13T14:25:43Z</time>
      </trkpt>
      <trkpt lat="46.25972" lon="6.27674">
        <ele>511.82</ele>
        <time>2021-10-13T14:25:49Z</time>
      </trkpt>
      <trkpt lat="46.25989" lon="6.27654">
        <ele>511.5</ele>
        <time>2021-10-13T14:25:55Z</time>
      </trkpt>
      <trkpt lat="46.25999" lon="6.27625">
        <ele>511.2</ele>
        <time>2021-10-13T14:25:59Z</time>
      </trkpt>
      <trkpt lat="46.26004" lon="6.27598">
        <ele>510.86</ele>
        <time>2021-10-13T14:26:03Z</time>
      </trkpt>
      <trkpt lat="46.26003" lon="6.27567">
        <ele>510.32</ele>
        <time>2021-10-13T14:26:08Z</time>
      </trkpt>
      <trkpt lat="46.25997" lon="6.27534">
        <ele>509.68</ele>
        <time>2021-10-13T14:26:14Z</time>
      </trkpt>
      <trkpt lat="46.25994" lon="6.27503">
        <ele>509.28</ele>
        <time>2021-10-13T14:26:21Z</time>
      </trkpt>
      <trkpt lat="46.25992" lon="6.27467">
        <ele>508.94</ele>
        <time>2021-10-13T14:26:27Z</time>
      </trkpt>
      <trkpt lat="46.25989" lon="6.27437">
        <ele>508.7</ele>
        <time>2021-10-13T14:26:31Z</time>
      </trkpt>
      <trkpt lat="46.25988" lon="6.27407">
        <ele>508.52</ele>
        <time>2021-10-13T14:26:35Z</time>
      </trkpt>
      <trkpt lat="46.25989" lon="6.27377">
        <ele>507.89</ele>
        <time>2021-10-13T14:26:40Z</time>
      </trkpt>
      <trkpt lat="46.25991" lon="6.27349">
        <ele>507.39</ele>
        <time>2021-10-13T14:26:45Z</time>
      </trkpt>
      <trkpt lat="46.2599" lon="6.27315">
        <ele>506.69</ele>
        <time>2021-10-13T14:26:51Z</time>
      </trkpt>
      <trkpt lat="46.25983" lon="6.27285">
        <ele>505.79</ele>
        <time>2021-10-13T14:26:57Z</time>
      </trkpt>
      <trkpt lat="46.25969" lon="6.27258">
        <ele>505.32</ele>
        <time>2021-10-13T14:27:02Z</time>
      </trkpt>
      <trkpt lat="46.2595" lon="6.27233">
        <ele>505.15</ele>
        <time>2021-10-13T14:27:06Z</time>
      </trkpt>
      <trkpt lat="46.25933" lon="6.27219">
        <ele>505.13</ele>
        <time>2021-10-13T14:27:09Z</time>
      </trkpt>
      <trkpt lat="46.25911" lon="6.27205">
        <ele>505.14</ele>
        <time>2021-10-13T14:27:13Z</time>
      </trkpt>
      <trkpt lat="46.25894" lon="6.27192">
        <ele>505.15</ele>
        <time>2021-10-13T14:27:17Z</time>
      </trkpt>
      <trkpt lat="46.25876" lon="6.27175">
        <ele>504.92</ele>
        <time>2021-10-13T14:27:22Z</time>
      </trkpt>
      <trkpt lat="46.25861" lon="6.27156">
        <ele>504.76</ele>
        <time>2021-10-13T14:27:28Z</time>
      </trkpt>
      <trkpt lat="46.25856" lon="6.2713">
        <ele>504.54</ele>
        <time>2021-10-13T14:27:35Z</time>
      </trkpt>
      <trkpt lat="46.25865" lon="6.27106">
        <ele>504.37</ele>
        <time>2021-10-13T14:27:39Z</time>
      </trkpt>
      <trkpt lat="46.25875" lon="6.27075">
        <ele>504.1</ele>
        <time>2021-10-13T14:27:43Z</time>
      </trkpt>
      <trkpt lat="46.25884" lon="6.2705">
        <ele>503.9</ele>
        <time>2021-10-13T14:27:46Z</time>
      </trkpt>
      <trkpt lat="46.25893" lon="6.27025">
        <ele>503.74</ele>
        <time>2021-10-13T14:27:49Z</time>
      </trkpt>
      <trkpt lat="46.25903" lon="6.26996">
        <ele>503.4</ele>
        <time>2021-10-13T14:27:53Z</time>
      </trkpt>
      <trkpt lat="46.2591" lon="6.26972">
        <ele>503.12</ele>
        <time>2021-10-13T14:27:57Z</time>
      </trkpt>
      <trkpt lat="46.25916" lon="6.26941">
        <ele>503</ele>
        <time>2021-10-13T14:28:02Z</time>
      </trkpt>
      <trkpt lat="46.2592" lon="6.26914">
        <ele>503.01</ele>
        <time>2021-10-13T14:28:06Z</time>
      </trkpt>
      <trkpt lat="46.25924" lon="6.26883">
        <ele>503.06</ele>
        <time>2021-10-13T14:28:10Z</time>
      </trkpt>
      <trkpt lat="46.25927" lon="6.26854">
        <ele>503.08</ele>
        <time>2021-10-13T14:28:14Z</time>
      </trkpt>
      <trkpt lat="46.25931" lon="6.26827">
        <ele>502.97</ele>
        <time>2021-10-13T14:28:18Z</time>
      </trkpt>
      <trkpt lat="46.25935" lon="6.26796">
        <ele>502.64</ele>
        <time>2021-10-13T14:28:23Z</time>
      </trkpt>
      <trkpt lat="46.25939" lon="6.26767">
        <ele>502.18</ele>
        <time>2021-10-13T14:28:28Z</time>
      </trkpt>
      <trkpt lat="46.25944" lon="6.26736">
        <ele>501.84</ele>
        <time>2021-10-13T14:28:33Z</time>
      </trkpt>
      <trkpt lat="46.25948" lon="6.2671">
        <ele>501.34</ele>
        <time>2021-10-13T14:28:37Z</time>
      </trkpt>
      <trkpt lat="46.25952" lon="6.26681">
        <ele>500.71</ele>
        <time>2021-10-13T14:28:41Z</time>
      </trkpt>
      <trkpt lat="46.25957" lon="6.26654">
        <ele>499.89</ele>
        <time>2021-10-13T14:28:45Z</time>
      </trkpt>
      <trkpt lat="46.25963" lon="6.26627">
        <ele>499.26</ele>
        <time>2021-10-13T14:28:49Z</time>
      </trkpt>
      <trkpt lat="46.25968" lon="6.266">
        <ele>498.76</ele>
        <time>2021-10-13T14:28:53Z</time>
      </trkpt>
      <trkpt lat="46.25974" lon="6.26575">
        <ele>498.23</ele>
        <time>2021-10-13T14:28:57Z</time>
      </trkpt>
      <trkpt lat="46.25992" lon="6.2658">
        <ele>497.91</ele>
        <time>2021-10-13T14:29:03Z</time>
      </trkpt>
      <trkpt lat="46.26009" lon="6.26599">
        <ele>497.8</ele>
        <time>2021-10-13T14:29:08Z</time>
      </trkpt>
      <trkpt lat="46.26021" lon="6.26618">
        <ele>498.04</ele>
        <time>2021-10-13T14:29:12Z</time>
      </trkpt>
      <trkpt lat="46.26032" lon="6.26641">
        <ele>498.24</ele>
        <time>2021-10-13T14:29:16Z</time>
      </trkpt>
      <trkpt lat="46.26044" lon="6.26666">
        <ele>498.69</ele>
        <time>2021-10-13T14:29:22Z</time>
      </trkpt>
      <trkpt lat="46.26061" lon="6.26683">
        <ele>498.79</ele>
        <time>2021-10-13T14:29:27Z</time>
      </trkpt>
      <trkpt lat="46.26078" lon="6.26698">
        <ele>498.58</ele>
        <time>2021-10-13T14:29:31Z</time>
      </trkpt>
      <trkpt lat="46.26099" lon="6.26714">
        <ele>498.38</ele>
        <time>2021-10-13T14:29:35Z</time>
      </trkpt>
      <trkpt lat="46.26118" lon="6.2673">
        <ele>498.25</ele>
        <time>2021-10-13T14:29:39Z</time>
      </trkpt>
      <trkpt lat="46.26133" lon="6.26744">
        <ele>497.51</ele>
        <time>2021-10-13T14:29:43Z</time>
      </trkpt>
      <trkpt lat="46.2615" lon="6.26758">
        <ele>496.71</ele>
        <time>2021-10-13T14:29:48Z</time>
      </trkpt>
      <trkpt lat="46.26167" lon="6.26773">
        <ele>496.6</ele>
        <time>2021-10-13T14:29:53Z</time>
      </trkpt>
      <trkpt lat="46.26183" lon="6.26797">
        <ele>496.64</ele>
        <time>2021-10-13T14:29:58Z</time>
      </trkpt>
      <trkpt lat="46.26196" lon="6.26817">
        <ele>496.68</ele>
        <time>2021-10-13T14:30:02Z</time>
      </trkpt>
      <trkpt lat="46.26212" lon="6.26835">
        <ele>496.57</ele>
        <time>2021-10-13T14:30:07Z</time>
      </trkpt>
      <trkpt lat="46.26227" lon="6.26851">
        <ele>496.52</ele>
        <time>2021-10-13T14:30:14Z</time>
      </trkpt>
      <trkpt lat="46.26241" lon="6.26869">
        <ele>496.69</ele>
        <time>2021-10-13T14:30:22Z</time>
      </trkpt>
      <trkpt lat="46.2624" lon="6.26897">
        <ele>496.68</ele>
        <time>2021-10-13T14:30:32Z</time>
      </trkpt>
      <trkpt lat="46.2623" lon="6.26925">
        <ele>496.51</ele>
        <time>2021-10-13T14:30:38Z</time>
      </trkpt>
      <trkpt lat="46.26232" lon="6.26948">
        <ele>496.9</ele>
        <time>2021-10-13T14:30:43Z</time>
      </trkpt>
      <trkpt lat="46.26249" lon="6.26963">
        <ele>497.12</ele>
        <time>2021-10-13T14:30:48Z</time>
      </trkpt>
      <trkpt lat="46.26263" lon="6.2698">
        <ele>497.3</ele>
        <time>2021-10-13T14:30:54Z</time>
      </trkpt>
      <trkpt lat="46.26275" lon="6.27001">
        <ele>497.36</ele>
        <time>2021-10-13T14:30:59Z</time>
      </trkpt>
      <trkpt lat="46.26283" lon="6.27027">
        <ele>497.87</ele>
        <time>2021-10-13T14:31:04Z</time>
      </trkpt>
      <trkpt lat="46.26287" lon="6.27055">
        <ele>498.39</ele>
        <time>2021-10-13T14:31:09Z</time>
      </trkpt>
      <trkpt lat="46.26291" lon="6.27081">
        <ele>498.6</ele>
        <time>2021-10-13T14:31:14Z</time>
      </trkpt>
      <trkpt lat="46.26296" lon="6.27108">
        <ele>498.99</ele>
        <time>2021-10-13T14:31:20Z</time>
      </trkpt>
      <trkpt lat="46.2631" lon="6.27129">
        <ele>499.08</ele>
        <time>2021-10-13T14:31:26Z</time>
      </trkpt>
      <trkpt lat="46.26326" lon="6.27146">
        <ele>498.98</ele>
        <time>2021-10-13T14:31:33Z</time>
      </trkpt>
      <trkpt lat="46.26339" lon="6.27167">
        <ele>499.11</ele>
        <time>2021-10-13T14:31:38Z</time>
      </trkpt>
      <trkpt lat="46.26348" lon="6.27189">
        <ele>499.35</ele>
        <time>2021-10-13T14:31:44Z</time>
      </trkpt>
      <trkpt lat="46.26357" lon="6.27216">
        <ele>499.46</ele>
        <time>2021-10-13T14:31:50Z</time>
      </trkpt>
      <trkpt lat="46.26365" lon="6.27243">
        <ele>499.6</ele>
        <time>2021-10-13T14:31:55Z</time>
      </trkpt>
      <trkpt lat="46.26374" lon="6.27268">
        <ele>499.83</ele>
        <time>2021-10-13T14:32:01Z</time>
      </trkpt>
      <trkpt lat="46.26383" lon="6.27297">
        <ele>500.16</ele>
        <time>2021-10-13T14:32:07Z</time>
      </trkpt>
      <trkpt lat="46.2639" lon="6.27323">
        <ele>500.31</ele>
        <time>2021-10-13T14:32:12Z</time>
      </trkpt>
      <trkpt lat="46.264" lon="6.27346">
        <ele>500.37</ele>
        <time>2021-10-13T14:32:18Z</time>
      </trkpt>
      <trkpt lat="46.26412" lon="6.27367">
        <ele>500.45</ele>
        <time>2021-10-13T14:32:24Z</time>
      </trkpt>
      <trkpt lat="46.26425" lon="6.27386">
        <ele>500.61</ele>
        <time>2021-10-13T14:32:29Z</time>
      </trkpt>
      <trkpt lat="46.2644" lon="6.274">
        <ele>500.71</ele>
        <time>2021-10-13T14:32:47Z</time>
      </trkpt>
      <trkpt lat="46.26454" lon="6.2742">
        <ele>500.74</ele>
        <time>2021-10-13T14:43:39Z</time>
      </trkpt>
      <trkpt lat="46.26466" lon="6.27445">
        <ele>500.74</ele>
        <time>2021-10-13T14:43:46Z</time>
      </trkpt>
      <trkpt lat="46.26478" lon="6.2747">
        <ele>500.74</ele>
        <time>2021-10-13T14:43:52Z</time>
      </trkpt>
      <trkpt lat="46.26488" lon="6.27495">
        <ele>500.74</ele>
        <time>2021-10-13T14:43:57Z</time>
      </trkpt>
      <trkpt lat="46.26497" lon="6.27519">
        <ele>500.74</ele>
        <time>2021-10-13T14:44:03Z</time>
      </trkpt>
      <trkpt lat="46.26507" lon="6.27545">
        <ele>500.74</ele>
        <time>2021-10-13T14:44:09Z</time>
      </trkpt>
      <trkpt lat="46.26517" lon="6.2757">
        <ele>500.74</ele>
        <time>2021-10-13T14:44:15Z</time>
      </trkpt>
      <trkpt lat="46.26527" lon="6.27596">
        <ele>500.74</ele>
        <time>2021-10-13T14:44:22Z</time>
      </trkpt>
      <trkpt lat="46.26535" lon="6.27622">
        <ele>500.74</ele>
        <time>2021-10-13T14:44:32Z</time>
      </trkpt>
      <trkpt lat="46.26549" lon="6.27626">
        <ele>500.74</ele>
        <time>2021-10-13T14:44:39Z</time>
      </trkpt>
      <trkpt lat="46.26563" lon="6.27604">
        <ele>500.74</ele>
        <time>2021-10-13T14:44:44Z</time>
      </trkpt>
      <trkpt lat="46.26577" lon="6.27586">
        <ele>500.74</ele>
        <time>2021-10-13T14:44:48Z</time>
      </trkpt>
      <trkpt lat="46.26592" lon="6.27566">
        <ele>500.74</ele>
        <time>2021-10-13T14:44:53Z</time>
      </trkpt>
      <trkpt lat="46.26608" lon="6.27544">
        <ele>500.74</ele>
        <time>2021-10-13T14:44:58Z</time>
      </trkpt>
      <trkpt lat="46.26616" lon="6.27522">
        <ele>500.74</ele>
        <time>2021-10-13T14:45:02Z</time>
      </trkpt>
      <trkpt lat="46.26614" lon="6.2749">
        <ele>500.74</ele>
        <time>2021-10-13T14:45:07Z</time>
      </trkpt>
      <trkpt lat="46.26613" lon="6.2746">
        <ele>500.74</ele>
        <time>2021-10-13T14:45:12Z</time>
      </trkpt>
      <trkpt lat="46.26613" lon="6.2743">
        <ele>500.74</ele>
        <time>2021-10-13T14:45:17Z</time>
      </trkpt>
      <trkpt lat="46.26613" lon="6.27397">
        <ele>500.74</ele>
        <time>2021-10-13T14:45:22Z</time>
      </trkpt>
      <trkpt lat="46.26615" lon="6.27368">
        <ele>500.74</ele>
        <time>2021-10-13T14:45:26Z</time>
      </trkpt>
      <trkpt lat="46.26617" lon="6.2734">
        <ele>500.74</ele>
        <time>2021-10-13T14:45:30Z</time>
      </trkpt>
      <trkpt lat="46.26617" lon="6.27313">
        <ele>500.74</ele>
        <time>2021-10-13T14:45:34Z</time>
      </trkpt>
      <trkpt lat="46.26617" lon="6.27285">
        <ele>500.74</ele>
        <time>2021-10-13T14:45:38Z</time>
      </trkpt>
      <trkpt lat="46.26618" lon="6.27258">
        <ele>500.74</ele>
        <time>2021-10-13T14:45:42Z</time>
      </trkpt>
      <trkpt lat="46.26618" lon="6.27232">
        <ele>500.74</ele>
        <time>2021-10-13T14:45:46Z</time>
      </trkpt>
      <trkpt lat="46.26619" lon="6.27206">
        <ele>495.71</ele>
        <time>2021-10-13T14:45:50Z</time>
      </trkpt>
      <trkpt lat="46.26618" lon="6.27178">
        <ele>495.48</ele>
        <time>2021-10-13T14:45:54Z</time>
      </trkpt>
      <trkpt lat="46.2662" lon="6.27149">
        <ele>495.35</ele>
        <time>2021-10-13T14:45:58Z</time>
      </trkpt>
      <trkpt lat="46.26633" lon="6.27126">
        <ele>494.85</ele>
        <time>2021-10-13T14:46:02Z</time>
      </trkpt>
      <trkpt lat="46.26649" lon="6.27105">
        <ele>494.47</ele>
        <time>2021-10-13T14:46:06Z</time>
      </trkpt>
      <trkpt lat="46.26659" lon="6.27082">
        <ele>493.92</ele>
        <time>2021-10-13T14:46:09Z</time>
      </trkpt>
      <trkpt lat="46.26666" lon="6.27054">
        <ele>493.11</ele>
        <time>2021-10-13T14:46:12Z</time>
      </trkpt>
      <trkpt lat="46.2667" lon="6.27023">
        <ele>491.8</ele>
        <time>2021-10-13T14:46:15Z</time>
      </trkpt>
      <trkpt lat="46.26678" lon="6.27005">
        <ele>487.92</ele>
        <time>2021-10-13T14:46:21Z</time>
      </trkpt>
      <trkpt lat="46.26693" lon="6.27026">
        <ele>485.4</ele>
        <time>2021-10-13T14:46:27Z</time>
      </trkpt>
      <trkpt lat="46.2671" lon="6.27043">
        <ele>484.55</ele>
        <time>2021-10-13T14:46:32Z</time>
      </trkpt>
      <trkpt lat="46.26729" lon="6.27055">
        <ele>483.93</ele>
        <time>2021-10-13T14:46:38Z</time>
      </trkpt>
      <trkpt lat="46.26741" lon="6.27027">
        <ele>482.9</ele>
        <time>2021-10-13T14:46:44Z</time>
      </trkpt>
      <trkpt lat="46.26753" lon="6.27002">
        <ele>482.09</ele>
        <time>2021-10-13T14:46:48Z</time>
      </trkpt>
      <trkpt lat="46.26759" lon="6.26975">
        <ele>481.41</ele>
        <time>2021-10-13T14:46:52Z</time>
      </trkpt>
      <trkpt lat="46.26767" lon="6.26953">
        <ele>481.1</ele>
        <time>2021-10-13T14:46:58Z</time>
      </trkpt>
      <trkpt lat="46.26767" lon="6.26927">
        <ele>481.41</ele>
        <time>2021-10-13T14:47:05Z</time>
      </trkpt>
      <trkpt lat="46.2677" lon="6.26905">
        <ele>481.92</ele>
        <time>2021-10-13T14:47:13Z</time>
      </trkpt>
      <trkpt lat="46.26766" lon="6.26884">
        <ele>481.09</ele>
        <time>2021-10-13T14:47:25Z</time>
      </trkpt>
      <trkpt lat="46.26744" lon="6.26857">
        <ele>480.44</ele>
        <time>2021-10-13T14:47:43Z</time>
      </trkpt>
      <trkpt lat="46.26729" lon="6.26839">
        <ele>480.53</ele>
        <time>2021-10-13T14:47:48Z</time>
      </trkpt>
      <trkpt lat="46.26716" lon="6.26818">
        <ele>480.42</ele>
        <time>2021-10-13T14:47:54Z</time>
      </trkpt>
      <trkpt lat="46.26704" lon="6.26792">
        <ele>479.45</ele>
        <time>2021-10-13T14:48:02Z</time>
      </trkpt>
      <trkpt lat="46.26696" lon="6.26764">
        <ele>479.16</ele>
        <time>2021-10-13T14:48:07Z</time>
      </trkpt>
      <trkpt lat="46.26685" lon="6.26737">
        <ele>478.87</ele>
        <time>2021-10-13T14:48:13Z</time>
      </trkpt>
      <trkpt lat="46.26677" lon="6.26709">
        <ele>478.62</ele>
        <time>2021-10-13T14:48:20Z</time>
      </trkpt>
      <trkpt lat="46.26671" lon="6.26679">
        <ele>478.74</ele>
        <time>2021-10-13T14:48:28Z</time>
      </trkpt>
      <trkpt lat="46.26667" lon="6.26651">
        <ele>478.73</ele>
        <time>2021-10-13T14:48:35Z</time>
      </trkpt>
      <trkpt lat="46.26659" lon="6.26618">
        <ele>478.65</ele>
        <time>2021-10-13T14:48:43Z</time>
      </trkpt>
      <trkpt lat="46.26651" lon="6.26585">
        <ele>478.7</ele>
        <time>2021-10-13T14:48:53Z</time>
      </trkpt>
      <trkpt lat="46.26643" lon="6.26555">
        <ele>478.53</ele>
        <time>2021-10-13T14:49:01Z</time>
      </trkpt>
      <trkpt lat="46.26632" lon="6.26524">
        <ele>478.22</ele>
        <time>2021-10-13T14:49:10Z</time>
      </trkpt>
      <trkpt lat="46.26626" lon="6.2649">
        <ele>478.02</ele>
        <time>2021-10-13T14:49:17Z</time>
      </trkpt>
      <trkpt lat="46.26623" lon="6.26457">
        <ele>477.89</ele>
        <time>2021-10-13T14:49:25Z</time>
      </trkpt>
      <trkpt lat="46.26624" lon="6.26423">
        <ele>477.58</ele>
        <time>2021-10-13T14:49:33Z</time>
      </trkpt>
      <trkpt lat="46.26625" lon="6.26389">
        <ele>477.49</ele>
        <time>2021-10-13T14:49:40Z</time>
      </trkpt>
      <trkpt lat="46.26631" lon="6.2636">
        <ele>477.46</ele>
        <time>2021-10-13T14:49:48Z</time>
      </trkpt>
      <trkpt lat="46.26636" lon="6.2633">
        <ele>477.24</ele>
        <time>2021-10-13T14:49:55Z</time>
      </trkpt>
      <trkpt lat="46.26644" lon="6.26301">
        <ele>477.5</ele>
        <time>2021-10-13T14:50:03Z</time>
      </trkpt>
      <trkpt lat="46.26654" lon="6.26274">
        <ele>477.91</ele>
        <time>2021-10-13T14:50:11Z</time>
      </trkpt>
      <trkpt lat="46.26664" lon="6.26245">
        <ele>477.6</ele>
        <time>2021-10-13T14:50:18Z</time>
      </trkpt>
      <trkpt lat="46.26674" lon="6.26221">
        <ele>477.47</ele>
        <time>2021-10-13T14:50:24Z</time>
      </trkpt>
      <trkpt lat="46.26679" lon="6.26197">
        <ele>477.31</ele>
        <time>2021-10-13T14:50:31Z</time>
      </trkpt>
      <trkpt lat="46.26699" lon="6.26205">
        <ele>477.89</ele>
        <time>2021-10-13T14:50:39Z</time>
      </trkpt>
      <trkpt lat="46.26717" lon="6.26214">
        <ele>478.67</ele>
        <time>2021-10-13T14:50:46Z</time>
      </trkpt>
      <trkpt lat="46.26735" lon="6.26215">
        <ele>479.58</ele>
        <time>2021-10-13T14:50:55Z</time>
      </trkpt>
      <trkpt lat="46.26741" lon="6.2619">
        <ele>480.06</ele>
        <time>2021-10-13T14:51:01Z</time>
      </trkpt>
      <trkpt lat="46.26746" lon="6.26164">
        <ele>480.03</ele>
        <time>2021-10-13T14:51:09Z</time>
      </trkpt>
      <trkpt lat="46.26758" lon="6.26156">
        <ele>480.45</ele>
        <time>2021-10-13T14:51:30Z</time>
      </trkpt>
      <trkpt lat="46.26776" lon="6.26172">
        <ele>480.51</ele>
        <time>2021-10-13T14:51:36Z</time>
      </trkpt>
      <trkpt lat="46.26793" lon="6.26183">
        <ele>480.94</ele>
        <time>2021-10-13T14:51:41Z</time>
      </trkpt>
      <trkpt lat="46.26809" lon="6.26199">
        <ele>481.49</ele>
        <time>2021-10-13T14:51:48Z</time>
      </trkpt>
      <trkpt lat="46.26825" lon="6.262">
        <ele>481.95</ele>
        <time>2021-10-13T14:51:53Z</time>
      </trkpt>
      <trkpt lat="46.26824" lon="6.26169">
        <ele>482</ele>
        <time>2021-10-13T14:51:58Z</time>
      </trkpt>
      <trkpt lat="46.26825" lon="6.26142">
        <ele>481.78</ele>
        <time>2021-10-13T14:52:03Z</time>
      </trkpt>
      <trkpt lat="46.26827" lon="6.2611">
        <ele>481.63</ele>
        <time>2021-10-13T14:52:08Z</time>
      </trkpt>
      <trkpt lat="46.26833" lon="6.26078">
        <ele>481.09</ele>
        <time>2021-10-13T14:52:12Z</time>
      </trkpt>
      <trkpt lat="46.26838" lon="6.26051">
        <ele>480.2</ele>
        <time>2021-10-13T14:52:15Z</time>
      </trkpt>
      <trkpt lat="46.26844" lon="6.26019">
        <ele>479.42</ele>
        <time>2021-10-13T14:52:19Z</time>
      </trkpt>
      <trkpt lat="46.26851" lon="6.25991">
        <ele>478.91</ele>
        <time>2021-10-13T14:52:23Z</time>
      </trkpt>
      <trkpt lat="46.26857" lon="6.25966">
        <ele>478.53</ele>
        <time>2021-10-13T14:52:27Z</time>
      </trkpt>
      <trkpt lat="46.26868" lon="6.25942">
        <ele>478.4</ele>
        <time>2021-10-13T14:52:32Z</time>
      </trkpt>
      <trkpt lat="46.26887" lon="6.25923">
        <ele>478.41</ele>
        <time>2021-10-13T14:52:38Z</time>
      </trkpt>
      <trkpt lat="46.26906" lon="6.25912">
        <ele>478.67</ele>
        <time>2021-10-13T14:52:43Z</time>
      </trkpt>
      <trkpt lat="46.26912" lon="6.25889">
        <ele>478.36</ele>
        <time>2021-10-13T14:52:50Z</time>
      </trkpt>
      <trkpt lat="46.26904" lon="6.25858">
        <ele>478.4</ele>
        <time>2021-10-13T14:52:55Z</time>
      </trkpt>
      <trkpt lat="46.26906" lon="6.25829">
        <ele>478.49</ele>
        <time>2021-10-13T14:52:59Z</time>
      </trkpt>
      <trkpt lat="46.26903" lon="6.25807">
        <ele>478.38</ele>
        <time>2021-10-13T14:53:04Z</time>
      </trkpt>
      <trkpt lat="46.26884" lon="6.2581">
        <ele>478.39</ele>
        <time>2021-10-13T14:53:09Z</time>
      </trkpt>
      <trkpt lat="46.26867" lon="6.258">
        <ele>478.26</ele>
        <time>2021-10-13T14:53:14Z</time>
      </trkpt>
      <trkpt lat="46.26852" lon="6.25782">
        <ele>477.78</ele>
        <time>2021-10-13T14:53:19Z</time>
      </trkpt>
      <trkpt lat="46.26845" lon="6.25754">
        <ele>476.93</ele>
        <time>2021-10-13T14:53:24Z</time>
      </trkpt>
      <trkpt lat="46.26834" lon="6.25757">
        <ele>476.05</ele>
        <time>2021-10-13T14:53:52Z</time>
      </trkpt>
      <trkpt lat="46.26829" lon="6.25781">
        <ele>476.26</ele>
        <time>2021-10-13T14:54:11Z</time>
      </trkpt>
      <trkpt lat="46.26831" lon="6.25778">
        <ele>476.11</ele>
        <time>2021-10-13T14:56:53Z</time>
      </trkpt>
    </trkseg>
  </trk>
</gpx>